AAL763 EDDF-KJFK
Flight info
| Callsign | AAL763 |
|---|---|
| Flight time | 7h 38m |
| Altitude | 36000 |
| Route | OBOKA3M OBOKA Z29 TORNU DCT MIMVA DCT GETNO DCT NIBOG DCT ETARI/M085F370 DCT 5630N02000W 5730N03000W 5630N04000W 5430N05000W DCT MELDI/N0483F380 N642B MIILS DCT ENE PARCH4 |
| Aircraft | B78X/H-SDE1E2E3FGHIJ2J3J4J5M1RWXY/LB1D1 |
Departure
| Time | 2026-04-12 17:58 |
|---|---|
| Airport | Frankfurt Main Airport (EDDF) |
Arrival
| Time | 2026-04-13 01:37 |
|---|---|
| Airport | John F. Kennedy International Airport (KJFK) |
| Time | Latitude | Longitude | Altitude | Speed | Heading |
|---|---|---|---|---|---|
| 2026-04-12 17:04 | 50.04693 | 8.56163 | 351 ft | 0 kts | 339° |
| 2026-04-12 17:37 | 50.04686 | 8.56167 | 360 ft | 3 kts | 339° |
| 2026-04-12 17:37 | 50.04669 | 8.56177 | 361 ft | 3 kts | 339° |
| 2026-04-12 17:37 | 50.04651 | 8.56188 | 361 ft | 3 kts | 315° |
| 2026-04-12 17:38 | 50.04639 | 8.56213 | 361 ft | 3 kts | 277° |
| 2026-04-12 17:38 | 50.04639 | 8.56239 | 361 ft | 1 kts | 249° |
| 2026-04-12 17:48 | 50.04636 | 8.56222 | 351 ft | 7 kts | 257° |
| 2026-04-12 17:49 | 50.04606 | 8.56085 | 358 ft | 18 kts | 245° |
| 2026-04-12 17:49 | 50.04513 | 8.55952 | 358 ft | 18 kts | 201° |
| 2026-04-12 17:49 | 50.04397 | 8.55915 | 355 ft | 16 kts | 178° |
| 2026-04-12 17:49 | 50.04326 | 8.55940 | 358 ft | 0 kts | 160° |
| 2026-04-12 17:50 | 50.04325 | 8.55940 | 358 ft | 0 kts | 160° |
| 2026-04-12 17:50 | 50.04323 | 8.55941 | 357 ft | 0 kts | 160° |
| 2026-04-12 17:50 | 50.04317 | 8.55944 | 355 ft | 5 kts | 160° |
| 2026-04-12 17:51 | 50.04266 | 8.56008 | 358 ft | 12 kts | 127° |
| 2026-04-12 17:51 | 50.04229 | 8.56035 | 353 ft | 0 kts | 159° |
| 2026-04-12 17:52 | 50.04229 | 8.56060 | 360 ft | 5 kts | 79° |
| 2026-04-12 17:52 | 50.04260 | 8.56088 | 358 ft | 10 kts | 38° |
| 2026-04-12 17:52 | 50.04208 | 8.56222 | 360 ft | 16 kts | 156° |
| 2026-04-12 17:53 | 50.04148 | 8.56330 | 357 ft | 13 kts | 93° |
| 2026-04-12 17:53 | 50.04172 | 8.56469 | 359 ft | 14 kts | 69° |
| 2026-04-12 17:53 | 50.04194 | 8.56561 | 358 ft | 13 kts | 70° |
| 2026-04-12 17:53 | 50.04226 | 8.56692 | 358 ft | 13 kts | 69° |
| 2026-04-12 17:54 | 50.04257 | 8.56819 | 359 ft | 12 kts | 69° |
| 2026-04-12 17:54 | 50.04296 | 8.56980 | 357 ft | 20 kts | 69° |
| 2026-04-12 17:54 | 50.04353 | 8.57221 | 353 ft | 25 kts | 70° |
| 2026-04-12 17:54 | 50.04411 | 8.57465 | 359 ft | 23 kts | 69° |
| 2026-04-12 17:55 | 50.04467 | 8.57697 | 359 ft | 22 kts | 69° |
| 2026-04-12 17:55 | 50.04517 | 8.57918 | 359 ft | 21 kts | 70° |
| 2026-04-12 17:55 | 50.04568 | 8.58124 | 356 ft | 20 kts | 69° |
| 2026-04-12 17:55 | 50.04615 | 8.58321 | 357 ft | 19 kts | 70° |
| 2026-04-12 17:56 | 50.04650 | 8.58469 | 358 ft | 13 kts | 75° |
| 2026-04-12 17:56 | 50.04619 | 8.58566 | 354 ft | 3 kts | 148° |
| 2026-04-12 17:56 | 50.04582 | 8.58596 | 360 ft | 14 kts | 154° |
| 2026-04-12 17:57 | 50.04497 | 8.58595 | 360 ft | 12 kts | 223° |
| 2026-04-12 17:57 | 50.04488 | 8.58574 | 357 ft | 0 kts | 239° |
| 2026-04-12 17:57 | 50.04472 | 8.58520 | 359 ft | 17 kts | 247° |
| 2026-04-12 17:57 | 50.04362 | 8.58069 | 356 ft | 78 kts | 249° |
| 2026-04-12 17:58 | 50.04096 | 8.56953 | 360 ft | 140 kts | 249° |
| 2026-04-12 17:58 | 50.03697 | 8.55311 | 472 ft | 177 kts | 249° |
| 2026-04-12 17:58 | 50.03238 | 8.53359 | 908 ft | 203 kts | 250° |
| 2026-04-12 17:58 | 50.02772 | 8.51234 | 1801 ft | 206 kts | 261° |
| 2026-04-12 17:59 | 50.02763 | 8.49106 | 2893 ft | 200 kts | 279° |
| 2026-04-12 17:59 | 50.03001 | 8.46870 | 3529 ft | 216 kts | 281° |
| 2026-04-12 17:59 | 50.03267 | 8.44542 | 4363 ft | 222 kts | 277° |
| 2026-04-12 17:59 | 50.03236 | 8.42168 | 5390 ft | 216 kts | 259° |
| 2026-04-12 18:00 | 50.02903 | 8.39928 | 6464 ft | 207 kts | 258° |
| 2026-04-12 18:00 | 50.02657 | 8.37730 | 7311 ft | 209 kts | 258° |
| 2026-04-12 18:00 | 50.02379 | 8.35501 | 8014 ft | 215 kts | 258° |
| 2026-04-12 18:00 | 50.02078 | 8.33124 | 8605 ft | 229 kts | 258° |
| 2026-04-12 18:01 | 50.01620 | 8.30614 | 8950 ft | 252 kts | 250° |
| 2026-04-12 18:01 | 50.00998 | 8.27983 | 9385 ft | 266 kts | 249° |
| 2026-04-12 18:01 | 50.00332 | 8.25232 | 9834 ft | 278 kts | 249° |
| 2026-04-12 18:01 | 49.99636 | 8.22382 | 10379 ft | 283 kts | 249° |
| 2026-04-12 18:02 | 49.98926 | 8.19455 | 10902 ft | 297 kts | 249° |
| 2026-04-12 18:02 | 49.98371 | 8.16313 | 11624 ft | 304 kts | 263° |
| 2026-04-12 18:02 | 49.98508 | 8.13025 | 12065 ft | 325 kts | 286° |
| 2026-04-12 18:02 | 49.99616 | 8.09980 | 12051 ft | 326 kts | 312° |
| 2026-04-12 18:03 | 50.01369 | 8.07689 | 12036 ft | 333 kts | 323° |
| 2026-04-12 18:03 | 50.03297 | 8.05710 | 12037 ft | 331 kts | 326° |
| 2026-04-12 18:03 | 50.05269 | 8.03833 | 12217 ft | 339 kts | 327° |
| 2026-04-12 18:03 | 50.07374 | 8.01867 | 12403 ft | 364 kts | 327° |
| 2026-04-12 18:04 | 50.09629 | 7.99769 | 12607 ft | 388 kts | 327° |
| 2026-04-12 18:04 | 50.12014 | 7.97550 | 12827 ft | 410 kts | 327° |
| 2026-04-12 18:04 | 50.14495 | 7.95240 | 13047 ft | 430 kts | 327° |
| 2026-04-12 18:04 | 50.17139 | 7.92773 | 13044 ft | 454 kts | 327° |
| 2026-04-12 18:05 | 50.19913 | 7.90174 | 13040 ft | 475 kts | 327° |
| 2026-04-12 18:05 | 50.22759 | 7.87500 | 13033 ft | 478 kts | 327° |
| 2026-04-12 18:05 | 50.25610 | 7.84820 | 13429 ft | 478 kts | 327° |
| 2026-04-12 18:05 | 50.28469 | 7.82138 | 14154 ft | 475 kts | 327° |
| 2026-04-12 18:06 | 50.31295 | 7.79507 | 14895 ft | 473 kts | 327° |
| 2026-04-12 18:06 | 50.34134 | 7.76891 | 15645 ft | 474 kts | 327° |
| 2026-04-12 18:06 | 50.36986 | 7.74294 | 16406 ft | 475 kts | 327° |
| 2026-04-12 18:06 | 50.39858 | 7.71717 | 17178 ft | 475 kts | 327° |
| 2026-04-12 18:07 | 50.42735 | 7.69162 | 17968 ft | 476 kts | 327° |
| 2026-04-12 18:07 | 50.45633 | 7.66613 | 18741 ft | 475 kts | 327° |
| 2026-04-12 18:07 | 50.48513 | 7.64111 | 19539 ft | 473 kts | 327° |
| 2026-04-12 18:07 | 50.51416 | 7.61616 | 19994 ft | 480 kts | 327° |
| 2026-04-12 18:08 | 50.54398 | 7.59067 | 20011 ft | 496 kts | 327° |
| 2026-04-12 18:08 | 50.57478 | 7.56431 | 20015 ft | 512 kts | 327° |
| 2026-04-12 18:08 | 50.60651 | 7.53707 | 20022 ft | 525 kts | 327° |
| 2026-04-12 18:08 | 50.63905 | 7.50903 | 20034 ft | 535 kts | 327° |
| 2026-04-12 18:09 | 50.67149 | 7.48101 | 20023 ft | 531 kts | 327° |
| 2026-04-12 18:09 | 50.70170 | 7.44839 | 20121 ft | 516 kts | 316° |
| 2026-04-12 18:09 | 50.72785 | 7.41002 | 20509 ft | 511 kts | 309° |
| 2026-04-12 18:09 | 50.75067 | 7.36803 | 21020 ft | 508 kts | 304° |
| 2026-04-12 18:10 | 50.77187 | 7.32359 | 21561 ft | 505 kts | 300° |
| 2026-04-12 18:10 | 50.79171 | 7.27792 | 22156 ft | 503 kts | 298° |
| 2026-04-12 18:10 | 50.81047 | 7.23152 | 22798 ft | 500 kts | 296° |
| 2026-04-12 18:10 | 50.82873 | 7.18471 | 23420 ft | 498 kts | 295° |
| 2026-04-12 18:11 | 50.84689 | 7.13806 | 23987 ft | 497 kts | 295° |
| 2026-04-12 18:11 | 50.86498 | 7.09163 | 24533 ft | 495 kts | 295° |
| 2026-04-12 18:11 | 50.88303 | 7.04538 | 25172 ft | 491 kts | 295° |
| 2026-04-12 18:11 | 50.90104 | 6.99971 | 25835 ft | 487 kts | 295° |
| 2026-04-12 18:12 | 50.91905 | 6.95440 | 26518 ft | 483 kts | 295° |
| 2026-04-12 18:12 | 50.93698 | 6.90966 | 27204 ft | 478 kts | 295° |
| 2026-04-12 18:12 | 50.95440 | 6.86515 | 27821 ft | 470 kts | 290° |
| 2026-04-12 18:12 | 50.96662 | 6.81764 | 28048 ft | 464 kts | 281° |
| 2026-04-12 18:13 | 50.97902 | 6.76927 | 28004 ft | 482 kts | 288° |
| 2026-04-12 18:13 | 50.99502 | 6.72159 | 28005 ft | 493 kts | 292° |
| 2026-04-12 18:13 | 51.01250 | 6.67461 | 28004 ft | 496 kts | 294° |
| 2026-04-12 18:14 | 51.04918 | 6.58178 | 28020 ft | 502 kts | 294° |
| 2026-04-12 18:14 | 51.08693 | 6.48881 | 28021 ft | 501 kts | 294° |
| 2026-04-12 18:15 | 51.12393 | 6.39499 | 28023 ft | 493 kts | 289° |
| 2026-04-12 18:15 | 51.14940 | 6.29515 | 28105 ft | 481 kts | 281° |
| 2026-04-12 18:15 | 51.15964 | 6.24554 | 28646 ft | 475 kts | 279° |
| 2026-04-12 18:16 | 51.16955 | 6.19535 | 29200 ft | 472 kts | 279° |
| 2026-04-12 18:16 | 51.17926 | 6.14544 | 29834 ft | 470 kts | 278° |
| 2026-04-12 18:16 | 51.18904 | 6.09576 | 30356 ft | 468 kts | 278° |
| 2026-04-12 18:16 | 51.19940 | 6.04626 | 30833 ft | 471 kts | 283° |
| 2026-04-12 18:17 | 51.21500 | 6.00037 | 31367 ft | 484 kts | 295° |
| 2026-04-12 18:17 | 51.23709 | 5.95890 | 31941 ft | 496 kts | 306° |
| 2026-04-12 18:17 | 51.26303 | 5.92212 | 32451 ft | 501 kts | 310° |
| 2026-04-12 18:17 | 51.29055 | 5.88794 | 32986 ft | 501 kts | 313° |
| 2026-04-12 18:18 | 51.31869 | 5.85520 | 33521 ft | 499 kts | 314° |
| 2026-04-12 18:18 | 51.34710 | 5.82327 | 34062 ft | 496 kts | 314° |
| 2026-04-12 18:18 | 51.37549 | 5.79192 | 34536 ft | 493 kts | 315° |
| 2026-04-12 18:18 | 51.40361 | 5.76100 | 35012 ft | 489 kts | 315° |
| 2026-04-12 18:19 | 51.43170 | 5.73042 | 35536 ft | 485 kts | 316° |
| 2026-04-12 18:19 | 51.45959 | 5.70023 | 35946 ft | 484 kts | 316° |
| 2026-04-12 18:19 | 51.48760 | 5.66970 | 35988 ft | 490 kts | 316° |
| 2026-04-12 18:20 | 51.54452 | 5.60689 | 35981 ft | 503 kts | 316° |
| 2026-04-12 18:20 | 51.60233 | 5.54234 | 35998 ft | 514 kts | 316° |
| 2026-04-12 18:21 | 51.65779 | 5.47208 | 36027 ft | 495 kts | 301° |
| 2026-04-12 18:21 | 51.67823 | 5.42863 | 35996 ft | 482 kts | 292° |
| 2026-04-12 18:21 | 51.69501 | 5.38236 | 35999 ft | 475 kts | 288° |
| 2026-04-12 18:22 | 51.72478 | 5.28760 | 35996 ft | 480 kts | 292° |
| 2026-04-12 18:22 | 51.74508 | 5.24364 | 36016 ft | 498 kts | 303° |
| 2026-04-12 18:22 | 51.76947 | 5.20337 | 36002 ft | 502 kts | 306° |
| 2026-04-12 18:23 | 51.81981 | 5.12479 | 35994 ft | 503 kts | 306° |
| 2026-04-12 18:23 | 51.87048 | 5.04645 | 35992 ft | 504 kts | 306° |
| 2026-04-12 18:24 | 51.92088 | 4.96852 | 35985 ft | 504 kts | 306° |
| 2026-04-12 18:24 | 51.97168 | 4.88990 | 35985 ft | 503 kts | 306° |
| 2026-04-12 18:25 | 52.02256 | 4.81116 | 35975 ft | 507 kts | 306° |
| 2026-04-12 18:25 | 52.07370 | 4.73203 | 35983 ft | 506 kts | 306° |
| 2026-04-12 18:26 | 52.12470 | 4.65311 | 35971 ft | 506 kts | 306° |
| 2026-04-12 18:26 | 52.17574 | 4.57399 | 35972 ft | 506 kts | 306° |
| 2026-04-12 18:27 | 52.22646 | 4.49520 | 35961 ft | 506 kts | 306° |
| 2026-04-12 18:27 | 52.28144 | 4.42125 | 35967 ft | 518 kts | 314° |
| 2026-04-12 18:28 | 52.33646 | 4.34702 | 35953 ft | 511 kts | 309° |
| 2026-04-12 18:28 | 52.39178 | 4.27296 | 35950 ft | 516 kts | 312° |
| 2026-04-12 18:29 | 52.44742 | 4.19890 | 35959 ft | 513 kts | 310° |
| 2026-04-12 18:29 | 52.50244 | 4.12442 | 35967 ft | 513 kts | 311° |
| 2026-04-12 18:30 | 52.55729 | 4.05081 | 35968 ft | 511 kts | 310° |
| 2026-04-12 18:30 | 52.61226 | 3.97609 | 35960 ft | 513 kts | 310° |
| 2026-04-12 18:31 | 52.66735 | 3.90149 | 35962 ft | 512 kts | 310° |
| 2026-04-12 18:31 | 52.72229 | 3.82648 | 35941 ft | 513 kts | 310° |
| 2026-04-12 18:32 | 52.77684 | 3.75198 | 35952 ft | 511 kts | 310° |
| 2026-04-12 18:32 | 52.83159 | 3.67680 | 35952 ft | 511 kts | 310° |
| 2026-04-12 18:33 | 52.88631 | 3.60150 | 35940 ft | 511 kts | 310° |
| 2026-04-12 18:33 | 52.94093 | 3.52603 | 35959 ft | 512 kts | 310° |
| 2026-04-12 18:34 | 52.99561 | 3.45027 | 35940 ft | 511 kts | 310° |
| 2026-04-12 18:34 | 53.04991 | 3.37409 | 35938 ft | 506 kts | 305° |
| 2026-04-12 18:34 | 53.07355 | 3.33172 | 35946 ft | 493 kts | 297° |
| 2026-04-12 18:35 | 53.09288 | 3.28554 | 35962 ft | 481 kts | 289° |
| 2026-04-12 18:35 | 53.10791 | 3.23658 | 35960 ft | 469 kts | 282° |
| 2026-04-12 18:35 | 53.11852 | 3.18665 | 35950 ft | 459 kts | 275° |
| 2026-04-12 18:36 | 53.12907 | 3.11801 | 35941 ft | 457 kts | 275° |
| 2026-04-12 18:36 | 53.13173 | 3.10072 | 35940 ft | 457 kts | 275° |
| 2026-04-12 18:37 | 53.16267 | 2.89491 | 35924 ft | 460 kts | 275° |
| 2026-04-12 18:37 | 53.17804 | 2.79156 | 35918 ft | 459 kts | 274° |
| 2026-04-12 18:38 | 53.19336 | 2.68792 | 35919 ft | 460 kts | 274° |
| 2026-04-12 18:38 | 53.20860 | 2.58420 | 35911 ft | 460 kts | 274° |
| 2026-04-12 18:39 | 53.22367 | 2.48064 | 35901 ft | 466 kts | 275° |
| 2026-04-12 18:39 | 53.23898 | 2.37528 | 35902 ft | 468 kts | 275° |
| 2026-04-12 18:40 | 53.25418 | 2.26964 | 35903 ft | 467 kts | 275° |
| 2026-04-12 18:40 | 53.26926 | 2.16415 | 35895 ft | 466 kts | 275° |
| 2026-04-12 18:41 | 53.28415 | 2.05930 | 35891 ft | 466 kts | 275° |
| 2026-04-12 18:41 | 53.29912 | 1.95287 | 35889 ft | 472 kts | 276° |
| 2026-04-12 18:42 | 53.31411 | 1.84614 | 35886 ft | 470 kts | 276° |
| 2026-04-12 18:42 | 53.32890 | 1.73949 | 35881 ft | 470 kts | 276° |
| 2026-04-12 18:43 | 53.35823 | 1.52628 | 35909 ft | 471 kts | 276° |
| 2026-04-12 18:44 | 53.37280 | 1.41918 | 35869 ft | 475 kts | 276° |
| 2026-04-12 18:44 | 53.38738 | 1.31136 | 35867 ft | 474 kts | 276° |
| 2026-04-12 18:45 | 53.40182 | 1.20356 | 35867 ft | 474 kts | 276° |
| 2026-04-12 18:45 | 53.41619 | 1.09560 | 35866 ft | 474 kts | 276° |
| 2026-04-12 18:46 | 53.43047 | 0.98735 | 35862 ft | 477 kts | 276° |
| 2026-04-12 18:46 | 53.44467 | 0.87924 | 35869 ft | 476 kts | 276° |
| 2026-04-12 18:47 | 53.45877 | 0.77072 | 35862 ft | 476 kts | 276° |
| 2026-04-12 18:47 | 53.47281 | 0.66202 | 35862 ft | 476 kts | 276° |
| 2026-04-12 18:48 | 53.48673 | 0.55340 | 35856 ft | 476 kts | 276° |
| 2026-04-12 18:48 | 53.50058 | 0.44429 | 35851 ft | 478 kts | 276° |
| 2026-04-12 18:49 | 53.51438 | 0.33506 | 35853 ft | 478 kts | 276° |
| 2026-04-12 18:49 | 53.52794 | 0.22659 | 35854 ft | 477 kts | 276° |
| 2026-04-12 18:50 | 53.54151 | 0.11732 | 35854 ft | 477 kts | 276° |
| 2026-04-12 18:50 | 53.55496 | 0.00807 | 35848 ft | 477 kts | 276° |
| 2026-04-12 18:51 | 53.56837 | -0.10177 | 35855 ft | 480 kts | 276° |
| 2026-04-12 18:51 | 53.58163 | -0.21100 | 35859 ft | 479 kts | 276° |
| 2026-04-12 18:52 | 53.59483 | -0.32097 | 35854 ft | 479 kts | 276° |
| 2026-04-12 18:52 | 53.60795 | -0.43097 | 35883 ft | 479 kts | 276° |
| 2026-04-12 18:53 | 53.62098 | -0.54120 | 35884 ft | 479 kts | 276° |
| 2026-04-12 18:53 | 53.63383 | -0.65080 | 35881 ft | 479 kts | 275° |
| 2026-04-12 18:54 | 53.64664 | -0.76110 | 35877 ft | 479 kts | 275° |
| 2026-04-12 18:54 | 53.65936 | -0.87146 | 35873 ft | 479 kts | 275° |
| 2026-04-12 18:55 | 53.67200 | -0.98203 | 35871 ft | 479 kts | 275° |
| 2026-04-12 18:55 | 53.68452 | -1.09263 | 35871 ft | 480 kts | 276° |
| 2026-04-12 18:56 | 53.69695 | -1.20326 | 35868 ft | 480 kts | 276° |
| 2026-04-12 18:56 | 53.70917 | -1.31313 | 35863 ft | 479 kts | 275° |
| 2026-04-12 18:57 | 53.72139 | -1.42392 | 35862 ft | 479 kts | 275° |
| 2026-04-12 18:57 | 53.73349 | -1.53464 | 35869 ft | 480 kts | 275° |
| 2026-04-12 18:58 | 53.74551 | -1.64554 | 35860 ft | 479 kts | 276° |
| 2026-04-12 18:58 | 53.75740 | -1.75631 | 35860 ft | 479 kts | 275° |
| 2026-04-12 18:59 | 53.76918 | -1.86703 | 35862 ft | 478 kts | 275° |
| 2026-04-12 18:59 | 53.78086 | -1.97788 | 35860 ft | 478 kts | 275° |
| 2026-04-12 19:00 | 53.79242 | -2.08864 | 35890 ft | 478 kts | 275° |
| 2026-04-12 19:00 | 53.80382 | -2.19878 | 35872 ft | 478 kts | 275° |
| 2026-04-12 19:01 | 53.81516 | -2.30953 | 35872 ft | 477 kts | 275° |
| 2026-04-12 19:01 | 53.82644 | -2.42065 | 35864 ft | 478 kts | 275° |
| 2026-04-12 19:02 | 53.83760 | -2.53164 | 35864 ft | 478 kts | 275° |
| 2026-04-12 19:02 | 53.84859 | -2.64214 | 35864 ft | 479 kts | 276° |
| 2026-04-12 19:03 | 53.85956 | -2.75338 | 35859 ft | 479 kts | 275° |
| 2026-04-12 19:03 | 53.87043 | -2.86476 | 35869 ft | 478 kts | 275° |
| 2026-04-12 19:04 | 53.88118 | -2.97613 | 35861 ft | 478 kts | 275° |
| 2026-04-12 19:04 | 53.89183 | -3.08742 | 35860 ft | 477 kts | 275° |
| 2026-04-12 19:05 | 53.90229 | -3.19805 | 35862 ft | 479 kts | 276° |
| 2026-04-12 19:05 | 53.91277 | -3.30976 | 35861 ft | 479 kts | 276° |
| 2026-04-12 19:06 | 53.92313 | -3.42160 | 35857 ft | 479 kts | 275° |
| 2026-04-12 19:06 | 53.93706 | -3.53235 | 35863 ft | 483 kts | 284° |
| 2026-04-12 19:07 | 53.95818 | -3.64057 | 35849 ft | 485 kts | 284° |
| 2026-04-12 19:07 | 53.97935 | -3.74931 | 35836 ft | 484 kts | 284° |
| 2026-04-12 19:08 | 54.00032 | -3.85805 | 35833 ft | 483 kts | 285° |
| 2026-04-12 19:08 | 54.02120 | -3.96664 | 35836 ft | 483 kts | 284° |
| 2026-04-12 19:09 | 54.04197 | -4.07547 | 35830 ft | 483 kts | 284° |
| 2026-04-12 19:09 | 54.06252 | -4.18364 | 35831 ft | 483 kts | 284° |
| 2026-04-12 19:10 | 54.08306 | -4.29251 | 35832 ft | 482 kts | 285° |
| 2026-04-12 19:10 | 54.10350 | -4.40133 | 35832 ft | 482 kts | 284° |
| 2026-04-12 19:11 | 54.12383 | -4.51030 | 35835 ft | 482 kts | 284° |
| 2026-04-12 19:11 | 54.14407 | -4.61936 | 35831 ft | 482 kts | 284° |
| 2026-04-12 19:12 | 54.16410 | -4.72796 | 35823 ft | 483 kts | 284° |
| 2026-04-12 19:12 | 54.18416 | -4.83731 | 35824 ft | 482 kts | 285° |
| 2026-04-12 19:13 | 54.20406 | -4.94652 | 35819 ft | 481 kts | 284° |
| 2026-04-12 19:13 | 54.22389 | -5.05596 | 35819 ft | 482 kts | 284° |
| 2026-04-12 19:14 | 54.24362 | -5.16546 | 35813 ft | 482 kts | 284° |
| 2026-04-12 19:14 | 54.26323 | -5.27502 | 35814 ft | 482 kts | 284° |
| 2026-04-12 19:15 | 54.28274 | -5.38464 | 35816 ft | 481 kts | 284° |
| 2026-04-12 19:15 | 54.30210 | -5.49403 | 35814 ft | 480 kts | 284° |
| 2026-04-12 19:16 | 54.32121 | -5.60277 | 35808 ft | 479 kts | 284° |
| 2026-04-12 19:16 | 54.34038 | -5.71244 | 35810 ft | 480 kts | 284° |
| 2026-04-12 19:17 | 54.35948 | -5.82237 | 35833 ft | 481 kts | 284° |
| 2026-04-12 19:17 | 54.37851 | -5.93259 | 35810 ft | 481 kts | 284° |
| 2026-04-12 19:18 | 54.39729 | -6.04207 | 35813 ft | 481 kts | 284° |
| 2026-04-12 19:18 | 54.41609 | -6.15232 | 35809 ft | 481 kts | 284° |
| 2026-04-12 19:19 | 54.43481 | -6.26279 | 35811 ft | 481 kts | 284° |
| 2026-04-12 19:19 | 54.45344 | -6.37346 | 35812 ft | 482 kts | 284° |
| 2026-04-12 19:20 | 54.47185 | -6.48353 | 35799 ft | 480 kts | 284° |
| 2026-04-12 19:20 | 54.49018 | -6.59373 | 35792 ft | 479 kts | 284° |
| 2026-04-12 19:21 | 54.50843 | -6.70424 | 35787 ft | 479 kts | 284° |
| 2026-04-12 19:21 | 54.52654 | -6.81458 | 35785 ft | 479 kts | 284° |
| 2026-04-12 19:22 | 54.54458 | -6.92516 | 35784 ft | 479 kts | 284° |
| 2026-04-12 19:22 | 54.56248 | -7.03569 | 35795 ft | 479 kts | 284° |
| 2026-04-12 19:23 | 54.57729 | -7.12761 | 35791 ft | 478 kts | 284° |
| 2026-04-12 19:23 | 54.59784 | -7.25608 | 35790 ft | 478 kts | 284° |
| 2026-04-12 19:24 | 54.61259 | -7.34883 | 35791 ft | 478 kts | 284° |
| 2026-04-12 19:24 | 54.62997 | -7.45887 | 35784 ft | 478 kts | 284° |
| 2026-04-12 19:25 | 54.64736 | -7.56967 | 35779 ft | 477 kts | 284° |
| 2026-04-12 19:25 | 54.66460 | -7.68023 | 35778 ft | 477 kts | 284° |
| 2026-04-12 19:26 | 54.68177 | -7.79107 | 35777 ft | 477 kts | 284° |
| 2026-04-12 19:26 | 54.69885 | -7.90209 | 35776 ft | 477 kts | 284° |
| 2026-04-12 19:27 | 54.71583 | -8.01329 | 35770 ft | 478 kts | 284° |
| 2026-04-12 19:27 | 54.73258 | -8.12361 | 35767 ft | 477 kts | 284° |
| 2026-04-12 19:28 | 54.74931 | -8.23466 | 35768 ft | 474 kts | 284° |
| 2026-04-12 19:28 | 54.76589 | -8.34547 | 35767 ft | 475 kts | 284° |
| 2026-04-12 19:29 | 54.78238 | -8.45638 | 35759 ft | 475 kts | 284° |
| 2026-04-12 19:29 | 54.79874 | -8.56722 | 35762 ft | 474 kts | 284° |
| 2026-04-12 19:30 | 54.81488 | -8.67735 | 35761 ft | 475 kts | 283° |
| 2026-04-12 19:30 | 54.83102 | -8.78821 | 35764 ft | 473 kts | 284° |
| 2026-04-12 19:31 | 54.84701 | -8.89886 | 35762 ft | 473 kts | 284° |
| 2026-04-12 19:31 | 54.86293 | -9.00984 | 35764 ft | 473 kts | 284° |
| 2026-04-12 19:32 | 54.87876 | -9.12089 | 35766 ft | 473 kts | 283° |
| 2026-04-12 19:32 | 54.89441 | -9.23153 | 35767 ft | 474 kts | 283° |
| 2026-04-12 19:33 | 54.91002 | -9.34271 | 35775 ft | 471 kts | 284° |
| 2026-04-12 19:33 | 54.92548 | -9.45358 | 35753 ft | 472 kts | 283° |
| 2026-04-12 19:34 | 54.94085 | -9.56460 | 35768 ft | 472 kts | 283° |
| 2026-04-12 19:34 | 54.95610 | -9.67560 | 35756 ft | 471 kts | 283° |
| 2026-04-12 19:35 | 54.97114 | -9.78591 | 35752 ft | 471 kts | 283° |
| 2026-04-12 19:35 | 54.98614 | -9.89679 | 35758 ft | 470 kts | 283° |
| 2026-04-12 19:36 | 55.00095 | -10.00760 | 35756 ft | 469 kts | 281° |
| 2026-04-12 19:36 | 55.01439 | -10.11875 | 35762 ft | 469 kts | 283° |
| 2026-04-12 19:37 | 55.02787 | -10.23003 | 35763 ft | 469 kts | 282° |
| 2026-04-12 19:37 | 55.04111 | -10.34164 | 35760 ft | 470 kts | 282° |
| 2026-04-12 19:38 | 55.05429 | -10.45249 | 35739 ft | 470 kts | 282° |
| 2026-04-12 19:38 | 55.06726 | -10.56333 | 35771 ft | 466 kts | 282° |
| 2026-04-12 19:39 | 55.08022 | -10.67449 | 35755 ft | 467 kts | 282° |
| 2026-04-12 19:39 | 55.09095 | -10.76755 | 35753 ft | 467 kts | 282° |
| 2026-04-12 19:40 | 55.10576 | -10.89674 | 35748 ft | 466 kts | 282° |
| 2026-04-12 19:40 | 55.11836 | -11.00784 | 35748 ft | 466 kts | 282° |
| 2026-04-12 19:41 | 55.13082 | -11.11865 | 35667 ft | 463 kts | 282° |
| 2026-04-12 19:41 | 55.13697 | -11.17377 | 35776 ft | 463 kts | 282° |
| 2026-04-12 19:41 | 55.14308 | -11.22859 | 35777 ft | 465 kts | 282° |
| 2026-04-12 19:42 | 55.15532 | -11.33933 | 35761 ft | 463 kts | 282° |
| 2026-04-12 19:42 | 55.16746 | -11.45019 | 35751 ft | 463 kts | 282° |
| 2026-04-12 19:43 | 55.18544 | -11.61618 | 35749 ft | 463 kts | 282° |
| 2026-04-12 19:43 | 55.19724 | -11.72626 | 35750 ft | 463 kts | 282° |
| 2026-04-12 19:44 | 55.20902 | -11.83727 | 35757 ft | 463 kts | 282° |
| 2026-04-12 19:44 | 55.22073 | -11.94855 | 35744 ft | 465 kts | 281° |
| 2026-04-12 19:45 | 55.23235 | -12.06008 | 35745 ft | 465 kts | 281° |
| 2026-04-12 19:45 | 55.24386 | -12.17155 | 35745 ft | 464 kts | 281° |
| 2026-04-12 19:46 | 55.25520 | -12.28252 | 35738 ft | 459 kts | 282° |
| 2026-04-12 19:46 | 55.26636 | -12.39262 | 35730 ft | 462 kts | 281° |
| 2026-04-12 19:47 | 55.27748 | -12.50347 | 35735 ft | 461 kts | 281° |
| 2026-04-12 19:47 | 55.28850 | -12.61432 | 35733 ft | 460 kts | 281° |
| 2026-04-12 19:48 | 55.29941 | -12.72515 | 35737 ft | 460 kts | 281° |
| 2026-04-12 19:48 | 55.31019 | -12.83582 | 35736 ft | 459 kts | 281° |
| 2026-04-12 19:49 | 55.32078 | -12.94545 | 35731 ft | 458 kts | 281° |
| 2026-04-12 19:49 | 55.33134 | -13.05599 | 35729 ft | 459 kts | 281° |
| 2026-04-12 19:50 | 55.34180 | -13.16657 | 35739 ft | 458 kts | 281° |
| 2026-04-12 19:50 | 55.35218 | -13.27734 | 35739 ft | 458 kts | 281° |
| 2026-04-12 19:51 | 55.36243 | -13.38791 | 35731 ft | 458 kts | 281° |
| 2026-04-12 19:51 | 55.37252 | -13.49792 | 35727 ft | 454 kts | 281° |
| 2026-04-12 19:52 | 55.38252 | -13.60793 | 35725 ft | 455 kts | 281° |
| 2026-04-12 19:52 | 55.39236 | -13.71748 | 35726 ft | 455 kts | 281° |
| 2026-04-12 19:53 | 55.40216 | -13.82762 | 35728 ft | 455 kts | 281° |
| 2026-04-12 19:53 | 55.41178 | -13.93703 | 35730 ft | 454 kts | 281° |
| 2026-04-12 19:54 | 55.42134 | -14.04681 | 35732 ft | 451 kts | 281° |
| 2026-04-12 19:54 | 55.43080 | -14.15656 | 35735 ft | 452 kts | 281° |
| 2026-04-12 19:55 | 55.44007 | -14.26548 | 35736 ft | 452 kts | 281° |
| 2026-04-12 19:55 | 55.44931 | -14.37513 | 35737 ft | 452 kts | 281° |
| 2026-04-12 19:56 | 55.45846 | -14.48491 | 35736 ft | 453 kts | 280° |
| 2026-04-12 19:56 | 55.46748 | -14.59434 | 35716 ft | 453 kts | 280° |
| 2026-04-12 19:57 | 55.47636 | -14.70348 | 35727 ft | 449 kts | 280° |
| 2026-04-12 19:57 | 55.48516 | -14.81264 | 35729 ft | 450 kts | 280° |
| 2026-04-12 19:58 | 55.49387 | -14.92204 | 35732 ft | 449 kts | 280° |
| 2026-04-12 19:58 | 55.50688 | -15.02925 | 35741 ft | 447 kts | 291° |
| 2026-04-12 19:59 | 55.52943 | -15.13072 | 35737 ft | 446 kts | 292° |
| 2026-04-12 19:59 | 55.55229 | -15.23267 | 35729 ft | 445 kts | 292° |
| 2026-04-12 20:00 | 55.57479 | -15.33368 | 35724 ft | 442 kts | 292° |
| 2026-04-12 20:00 | 55.59729 | -15.43514 | 35728 ft | 443 kts | 292° |
| 2026-04-12 20:01 | 55.61985 | -15.53733 | 35736 ft | 446 kts | 292° |
| 2026-04-12 20:01 | 55.64214 | -15.63887 | 35735 ft | 445 kts | 292° |
| 2026-04-12 20:02 | 55.66449 | -15.74112 | 35733 ft | 445 kts | 291° |
| 2026-04-12 20:02 | 55.68676 | -15.84356 | 35734 ft | 445 kts | 291° |
| 2026-04-12 20:03 | 55.70883 | -15.94560 | 35719 ft | 439 kts | 291° |
| 2026-04-12 20:03 | 55.73073 | -16.04726 | 35720 ft | 442 kts | 291° |
| 2026-04-12 20:04 | 55.75247 | -16.14878 | 35723 ft | 441 kts | 291° |
| 2026-04-12 20:04 | 55.77422 | -16.25079 | 35718 ft | 444 kts | 291° |
| 2026-04-12 20:05 | 55.79606 | -16.35376 | 35722 ft | 444 kts | 291° |
| 2026-04-12 20:05 | 55.81777 | -16.45663 | 35721 ft | 444 kts | 291° |
| 2026-04-12 20:06 | 55.83940 | -16.55966 | 35694 ft | 444 kts | 291° |
| 2026-04-12 20:06 | 55.86062 | -16.66127 | 35707 ft | 440 kts | 291° |
| 2026-04-12 20:07 | 55.88189 | -16.76357 | 35713 ft | 440 kts | 291° |
| 2026-04-12 20:07 | 55.90308 | -16.86605 | 35708 ft | 440 kts | 291° |
| 2026-04-12 20:08 | 55.92419 | -16.96865 | 35711 ft | 440 kts | 291° |
| 2026-04-12 20:08 | 55.94516 | -17.07110 | 35720 ft | 444 kts | 290° |
| 2026-04-12 20:09 | 55.96624 | -17.17465 | 35711 ft | 442 kts | 290° |
| 2026-04-12 20:09 | 55.98714 | -17.27783 | 35705 ft | 440 kts | 290° |
| 2026-04-12 20:10 | 56.00434 | -17.36314 | 35704 ft | 440 kts | 290° |
| 2026-04-12 20:10 | 56.02501 | -17.46615 | 35700 ft | 440 kts | 290° |
| 2026-04-12 20:11 | 56.04556 | -17.56916 | 35697 ft | 440 kts | 290° |
| 2026-04-12 20:11 | 56.06605 | -17.67232 | 35694 ft | 439 kts | 290° |
| 2026-04-12 20:12 | 56.08629 | -17.77480 | 35697 ft | 439 kts | 290° |
| 2026-04-12 20:12 | 56.10672 | -17.87875 | 35707 ft | 445 kts | 290° |
| 2026-04-12 20:13 | 56.12710 | -17.98307 | 35706 ft | 443 kts | 290° |
| 2026-04-12 20:14 | 56.15742 | -18.13928 | 35709 ft | 443 kts | 290° |
| 2026-04-12 20:14 | 56.17761 | -18.24399 | 35711 ft | 444 kts | 289° |
| 2026-04-12 20:15 | 56.19772 | -18.34889 | 35712 ft | 444 kts | 289° |
| 2026-04-12 20:15 | 56.21777 | -18.45398 | 35708 ft | 444 kts | 289° |
| 2026-04-12 20:16 | 56.23760 | -18.55855 | 35706 ft | 444 kts | 289° |
| 2026-04-12 20:16 | 56.25746 | -18.66383 | 35701 ft | 445 kts | 289° |
| 2026-04-12 20:17 | 56.27722 | -18.76918 | 35692 ft | 444 kts | 289° |
| 2026-04-12 20:17 | 56.29690 | -18.87468 | 35690 ft | 444 kts | 289° |
| 2026-04-12 20:18 | 56.31651 | -18.98040 | 35698 ft | 444 kts | 289° |
| 2026-04-12 20:18 | 56.33587 | -19.08538 | 35698 ft | 444 kts | 289° |
| 2026-04-12 20:19 | 56.35524 | -19.19100 | 35696 ft | 444 kts | 289° |
| 2026-04-12 20:19 | 56.37457 | -19.29695 | 35695 ft | 444 kts | 289° |
| 2026-04-12 20:20 | 56.39370 | -19.40247 | 35694 ft | 440 kts | 289° |
| 2026-04-12 20:20 | 56.41283 | -19.50850 | 35706 ft | 446 kts | 289° |
| 2026-04-12 20:21 | 56.43186 | -19.61470 | 35703 ft | 444 kts | 288° |
| 2026-04-12 20:21 | 56.45071 | -19.72043 | 35704 ft | 445 kts | 288° |
| 2026-04-12 20:22 | 56.46960 | -19.82707 | 35706 ft | 446 kts | 288° |
| 2026-04-12 20:22 | 56.48843 | -19.93389 | 35703 ft | 445 kts | 288° |
| 2026-04-12 20:23 | 56.50589 | -20.04121 | 35673 ft | 444 kts | 285° |
| 2026-04-12 20:23 | 56.52126 | -20.14867 | 35693 ft | 441 kts | 285° |
| 2026-04-12 20:24 | 56.53647 | -20.25606 | 35695 ft | 441 kts | 285° |
| 2026-04-12 20:24 | 56.55174 | -20.36459 | 35708 ft | 447 kts | 285° |
| 2026-04-12 20:25 | 56.56698 | -20.47371 | 35699 ft | 445 kts | 285° |
| 2026-04-12 20:25 | 56.58209 | -20.58263 | 35699 ft | 445 kts | 285° |
| 2026-04-12 20:26 | 56.59712 | -20.69180 | 35708 ft | 445 kts | 285° |
| 2026-04-12 20:26 | 56.61197 | -20.80042 | 35697 ft | 440 kts | 285° |
| 2026-04-12 20:27 | 56.62670 | -20.90882 | 35702 ft | 442 kts | 285° |
| 2026-04-12 20:27 | 56.64132 | -21.01735 | 35704 ft | 442 kts | 285° |
| 2026-04-12 20:28 | 56.65584 | -21.12584 | 35702 ft | 442 kts | 285° |
| 2026-04-12 20:28 | 56.67018 | -21.23380 | 35706 ft | 446 kts | 285° |
| 2026-04-12 20:29 | 56.68466 | -21.34360 | 35707 ft | 445 kts | 285° |
| 2026-04-12 20:29 | 56.69901 | -21.45321 | 35708 ft | 442 kts | 284° |
| 2026-04-12 20:30 | 56.71306 | -21.56134 | 35705 ft | 441 kts | 284° |
| 2026-04-12 20:30 | 56.72700 | -21.66946 | 35706 ft | 440 kts | 284° |
| 2026-04-12 20:31 | 56.74089 | -21.77797 | 35709 ft | 440 kts | 284° |
| 2026-04-12 20:31 | 56.75468 | -21.88648 | 35713 ft | 440 kts | 284° |
| 2026-04-12 20:32 | 56.76844 | -21.99562 | 35711 ft | 440 kts | 284° |
| 2026-04-12 20:32 | 56.78198 | -22.10382 | 35714 ft | 441 kts | 284° |
| 2026-04-12 20:33 | 56.79544 | -22.21230 | 35700 ft | 434 kts | 284° |
| 2026-04-12 20:33 | 56.80878 | -22.32046 | 35701 ft | 437 kts | 284° |
| 2026-04-12 20:34 | 56.82200 | -22.42871 | 35700 ft | 437 kts | 284° |
| 2026-04-12 20:34 | 56.83515 | -22.53706 | 35703 ft | 437 kts | 284° |
| 2026-04-12 20:35 | 56.84816 | -22.64515 | 35707 ft | 437 kts | 284° |
| 2026-04-12 20:35 | 56.86114 | -22.75388 | 35709 ft | 437 kts | 283° |
| 2026-04-12 20:36 | 56.87401 | -22.86249 | 35687 ft | 435 kts | 283° |
| 2026-04-12 20:36 | 56.88660 | -22.96971 | 35720 ft | 433 kts | 283° |
| 2026-04-12 20:37 | 56.89912 | -23.07702 | 35726 ft | 437 kts | 283° |
| 2026-04-12 20:37 | 56.91169 | -23.18578 | 35731 ft | 435 kts | 283° |
| 2026-04-12 20:38 | 56.92415 | -23.29435 | 35729 ft | 436 kts | 283° |
| 2026-04-12 20:38 | 56.93652 | -23.40316 | 35731 ft | 436 kts | 283° |
| 2026-04-12 20:39 | 56.94874 | -23.51153 | 35732 ft | 436 kts | 283° |
| 2026-04-12 20:39 | 56.96091 | -23.62036 | 35725 ft | 433 kts | 283° |
| 2026-04-12 20:40 | 56.97274 | -23.72690 | 35730 ft | 435 kts | 283° |
| 2026-04-12 20:40 | 56.98470 | -23.83564 | 35740 ft | 434 kts | 283° |
| 2026-04-12 20:41 | 56.99657 | -23.94444 | 35739 ft | 435 kts | 283° |
| 2026-04-12 20:41 | 57.00834 | -24.05330 | 35742 ft | 438 kts | 282° |
| 2026-04-12 20:42 | 57.02007 | -24.16281 | 35739 ft | 437 kts | 282° |
| 2026-04-12 20:42 | 57.03170 | -24.27224 | 35736 ft | 436 kts | 282° |
| 2026-04-12 20:43 | 57.04313 | -24.38078 | 35745 ft | 435 kts | 282° |
| 2026-04-12 20:43 | 57.05454 | -24.49001 | 35747 ft | 436 kts | 282° |
| 2026-04-12 20:44 | 57.06588 | -24.59963 | 35746 ft | 436 kts | 282° |
| 2026-04-12 20:44 | 57.07710 | -24.70911 | 35746 ft | 435 kts | 282° |
| 2026-04-12 20:45 | 57.08823 | -24.81861 | 35742 ft | 435 kts | 282° |
| 2026-04-12 20:45 | 57.09923 | -24.92797 | 35750 ft | 434 kts | 282° |
| 2026-04-12 20:46 | 57.11017 | -25.03763 | 35754 ft | 439 kts | 282° |
| 2026-04-12 20:46 | 57.12106 | -25.14797 | 35754 ft | 438 kts | 282° |
| 2026-04-12 20:47 | 57.13188 | -25.25846 | 35756 ft | 439 kts | 282° |
| 2026-04-12 20:47 | 57.14262 | -25.36927 | 35757 ft | 439 kts | 281° |
| 2026-04-12 20:48 | 57.15324 | -25.47998 | 35764 ft | 438 kts | 281° |
| 2026-04-12 20:48 | 57.16375 | -25.59056 | 35764 ft | 437 kts | 281° |
| 2026-04-12 20:49 | 57.17409 | -25.70040 | 35760 ft | 438 kts | 281° |
| 2026-04-12 20:49 | 57.18434 | -25.81046 | 35756 ft | 432 kts | 281° |
| 2026-04-12 20:50 | 57.19451 | -25.92057 | 35755 ft | 437 kts | 281° |
| 2026-04-12 20:50 | 57.20463 | -26.03143 | 35766 ft | 437 kts | 281° |
| 2026-04-12 20:51 | 57.21457 | -26.14141 | 35763 ft | 436 kts | 281° |
| 2026-04-12 20:51 | 57.22447 | -26.25196 | 35758 ft | 436 kts | 281° |
| 2026-04-12 20:52 | 57.23427 | -26.36272 | 35772 ft | 436 kts | 281° |
| 2026-04-12 20:52 | 57.24399 | -26.47351 | 35754 ft | 436 kts | 280° |
| 2026-04-12 20:53 | 57.25347 | -26.58300 | 35770 ft | 434 kts | 280° |
| 2026-04-12 20:53 | 57.26293 | -26.69320 | 35782 ft | 434 kts | 280° |
| 2026-04-12 20:54 | 57.27230 | -26.80358 | 35780 ft | 434 kts | 280° |
| 2026-04-12 20:54 | 57.28159 | -26.91418 | 35798 ft | 439 kts | 280° |
| 2026-04-12 20:55 | 57.29075 | -27.02461 | 35796 ft | 436 kts | 279° |
| 2026-04-12 20:55 | 57.29987 | -27.13565 | 35791 ft | 437 kts | 279° |
| 2026-04-12 20:56 | 57.30889 | -27.24671 | 35790 ft | 432 kts | 279° |
| 2026-04-12 20:56 | 57.31770 | -27.35648 | 35791 ft | 434 kts | 279° |
| 2026-04-12 20:57 | 57.32505 | -27.44900 | 35793 ft | 434 kts | 279° |
| 2026-04-12 20:57 | 57.33368 | -27.55889 | 35796 ft | 434 kts | 279° |
| 2026-04-12 20:58 | 57.34228 | -27.66952 | 35794 ft | 433 kts | 279° |
| 2026-04-12 20:58 | 57.35077 | -27.78005 | 35793 ft | 433 kts | 279° |
| 2026-04-12 20:59 | 57.35919 | -27.89107 | 35811 ft | 439 kts | 279° |
| 2026-04-12 20:59 | 57.36750 | -28.00196 | 35802 ft | 435 kts | 278° |
| 2026-04-12 21:00 | 57.37572 | -28.11299 | 35808 ft | 435 kts | 278° |
| 2026-04-12 21:00 | 57.38385 | -28.22422 | 35808 ft | 435 kts | 278° |
| 2026-04-12 21:01 | 57.39189 | -28.33554 | 35809 ft | 435 kts | 278° |
| 2026-04-12 21:01 | 57.39984 | -28.44703 | 35818 ft | 436 kts | 278° |
| 2026-04-12 21:02 | 57.40769 | -28.55858 | 35821 ft | 437 kts | 278° |
| 2026-04-12 21:02 | 57.41546 | -28.67034 | 35821 ft | 436 kts | 278° |
| 2026-04-12 21:03 | 57.42306 | -28.78121 | 35821 ft | 431 kts | 277° |
| 2026-04-12 21:03 | 57.43057 | -28.89219 | 35837 ft | 437 kts | 277° |
| 2026-04-12 21:04 | 57.43803 | -29.00394 | 35842 ft | 436 kts | 277° |
| 2026-04-12 21:04 | 57.44539 | -29.11576 | 35841 ft | 436 kts | 277° |
| 2026-04-12 21:05 | 57.45265 | -29.22766 | 35841 ft | 436 kts | 277° |
| 2026-04-12 21:05 | 57.45983 | -29.33973 | 35847 ft | 437 kts | 277° |
| 2026-04-12 21:06 | 57.46690 | -29.45177 | 35842 ft | 435 kts | 276° |
| 2026-04-12 21:06 | 57.47381 | -29.56299 | 35837 ft | 434 kts | 276° |
| 2026-04-12 21:07 | 57.48065 | -29.67449 | 35843 ft | 434 kts | 276° |
| 2026-04-12 21:07 | 57.48735 | -29.78556 | 35854 ft | 435 kts | 276° |
| 2026-04-12 21:08 | 57.49406 | -29.89829 | 35858 ft | 437 kts | 276° |
| 2026-04-12 21:08 | 57.49860 | -30.01041 | 35862 ft | 438 kts | 269° |
| 2026-04-12 21:09 | 57.49276 | -30.12335 | 35861 ft | 439 kts | 265° |
| 2026-04-12 21:09 | 57.48608 | -30.23563 | 35855 ft | 435 kts | 264° |
| 2026-04-12 21:10 | 57.47928 | -30.34776 | 35860 ft | 437 kts | 264° |
| 2026-04-12 21:10 | 57.47239 | -30.46003 | 35862 ft | 437 kts | 264° |
| 2026-04-12 21:11 | 57.46536 | -30.57249 | 35868 ft | 438 kts | 264° |
| 2026-04-12 21:11 | 57.45826 | -30.68483 | 35872 ft | 437 kts | 264° |
| 2026-04-12 21:12 | 57.45105 | -30.79705 | 35849 ft | 436 kts | 264° |
| 2026-04-12 21:12 | 57.44381 | -30.90823 | 35858 ft | 437 kts | 264° |
| 2026-04-12 21:13 | 57.43642 | -31.02022 | 35860 ft | 437 kts | 263° |
| 2026-04-12 21:13 | 57.42892 | -31.13220 | 35861 ft | 437 kts | 263° |
| 2026-04-12 21:14 | 57.42128 | -31.24476 | 35877 ft | 441 kts | 263° |
| 2026-04-12 21:14 | 57.41359 | -31.35663 | 35876 ft | 439 kts | 263° |
| 2026-04-12 21:15 | 57.40576 | -31.46911 | 35864 ft | 440 kts | 263° |
| 2026-04-12 21:15 | 57.39780 | -31.58161 | 35867 ft | 440 kts | 263° |
| 2026-04-12 21:16 | 57.38975 | -31.69421 | 35870 ft | 440 kts | 263° |
| 2026-04-12 21:16 | 57.38158 | -31.80697 | 35874 ft | 441 kts | 263° |
| 2026-04-12 21:17 | 57.37337 | -31.91885 | 35874 ft | 441 kts | 263° |
| 2026-04-12 21:17 | 57.36500 | -32.03155 | 35878 ft | 441 kts | 263° |
| 2026-04-12 21:18 | 57.35652 | -32.14426 | 35880 ft | 441 kts | 262° |
| 2026-04-12 21:18 | 57.34794 | -32.25686 | 35881 ft | 442 kts | 262° |
| 2026-04-12 21:19 | 57.33927 | -32.36937 | 35880 ft | 440 kts | 262° |
| 2026-04-12 21:19 | 57.33052 | -32.48152 | 35883 ft | 440 kts | 262° |
| 2026-04-12 21:20 | 57.32166 | -32.59364 | 35883 ft | 441 kts | 262° |
| 2026-04-12 21:20 | 57.31274 | -32.70533 | 35863 ft | 442 kts | 262° |
| 2026-04-12 21:21 | 57.30364 | -32.81801 | 35881 ft | 443 kts | 262° |
| 2026-04-12 21:21 | 57.29444 | -32.93061 | 35882 ft | 443 kts | 262° |
| 2026-04-12 21:22 | 57.28511 | -33.04344 | 35884 ft | 443 kts | 261° |
| 2026-04-12 21:22 | 57.27569 | -33.15609 | 35888 ft | 443 kts | 261° |
| 2026-04-12 21:23 | 57.26622 | -33.26812 | 35892 ft | 444 kts | 261° |
| 2026-04-12 21:23 | 57.25656 | -33.38111 | 35884 ft | 444 kts | 261° |
| 2026-04-12 21:24 | 57.24685 | -33.49343 | 35882 ft | 445 kts | 261° |
| 2026-04-12 21:24 | 57.23701 | -33.60609 | 35882 ft | 444 kts | 261° |
| 2026-04-12 21:25 | 57.22706 | -33.71877 | 35882 ft | 444 kts | 261° |
| 2026-04-12 21:25 | 57.21700 | -33.83153 | 35882 ft | 445 kts | 261° |
| 2026-04-12 21:26 | 57.20691 | -33.94334 | 35881 ft | 445 kts | 261° |
| 2026-04-12 21:26 | 57.19144 | -34.11265 | 35877 ft | 446 kts | 260° |
| 2026-04-12 21:27 | 57.18097 | -34.22580 | 35892 ft | 448 kts | 260° |
| 2026-04-12 21:27 | 57.17047 | -34.33815 | 35892 ft | 447 kts | 260° |
| 2026-04-12 21:28 | 57.15983 | -34.45081 | 35889 ft | 446 kts | 260° |
| 2026-04-12 21:28 | 57.14905 | -34.56374 | 35888 ft | 446 kts | 260° |
| 2026-04-12 21:29 | 57.13818 | -34.67653 | 35877 ft | 448 kts | 259° |
| 2026-04-12 21:29 | 57.12720 | -34.78944 | 35874 ft | 448 kts | 259° |
| 2026-04-12 21:30 | 57.11617 | -34.90163 | 35880 ft | 448 kts | 259° |
| 2026-04-12 21:30 | 57.10498 | -35.01445 | 35879 ft | 448 kts | 259° |
| 2026-04-12 21:31 | 57.09369 | -35.12716 | 35876 ft | 447 kts | 259° |
| 2026-04-12 21:31 | 57.08232 | -35.23962 | 35869 ft | 447 kts | 259° |
| 2026-04-12 21:32 | 57.07081 | -35.35229 | 35876 ft | 449 kts | 259° |
| 2026-04-12 21:32 | 57.05918 | -35.46513 | 35880 ft | 449 kts | 259° |
| 2026-04-12 21:33 | 57.04746 | -35.57787 | 35878 ft | 449 kts | 259° |
| 2026-04-12 21:33 | 57.03571 | -35.68976 | 35879 ft | 449 kts | 258° |
| 2026-04-12 21:34 | 57.02375 | -35.80265 | 35878 ft | 449 kts | 258° |
| 2026-04-12 21:34 | 57.01173 | -35.91513 | 35873 ft | 449 kts | 258° |
| 2026-04-12 21:35 | 56.99958 | -36.02769 | 35876 ft | 450 kts | 258° |
| 2026-04-12 21:35 | 56.98731 | -36.14041 | 35878 ft | 450 kts | 258° |
| 2026-04-12 21:36 | 56.97494 | -36.25308 | 35875 ft | 451 kts | 258° |
| 2026-04-12 21:36 | 56.96248 | -36.36555 | 35875 ft | 449 kts | 258° |
| 2026-04-12 21:37 | 56.94997 | -36.47747 | 35861 ft | 448 kts | 258° |
| 2026-04-12 21:37 | 56.93743 | -36.58872 | 35865 ft | 449 kts | 258° |
| 2026-04-12 21:38 | 56.92468 | -36.70087 | 35864 ft | 449 kts | 257° |
| 2026-04-12 21:38 | 56.91182 | -36.81300 | 35862 ft | 449 kts | 257° |
| 2026-04-12 21:39 | 56.89889 | -36.92482 | 35864 ft | 449 kts | 257° |
| 2026-04-12 21:39 | 56.88594 | -37.03586 | 35864 ft | 449 kts | 257° |
| 2026-04-12 21:40 | 56.87282 | -37.14749 | 35863 ft | 447 kts | 257° |
| 2026-04-12 21:40 | 56.85961 | -37.25891 | 35876 ft | 450 kts | 257° |
| 2026-04-12 21:41 | 56.84625 | -37.37066 | 35880 ft | 449 kts | 257° |
| 2026-04-12 21:41 | 56.83284 | -37.48202 | 35875 ft | 449 kts | 257° |
| 2026-04-12 21:42 | 56.81941 | -37.59251 | 35874 ft | 448 kts | 257° |
| 2026-04-12 21:42 | 56.80579 | -37.70376 | 35877 ft | 448 kts | 256° |
| 2026-04-12 21:43 | 56.79214 | -37.81436 | 35870 ft | 446 kts | 256° |
| 2026-04-12 21:43 | 56.78070 | -37.90633 | 35865 ft | 447 kts | 256° |
| 2026-04-12 21:44 | 56.76685 | -38.01692 | 35864 ft | 447 kts | 256° |
| 2026-04-12 21:44 | 56.75290 | -38.12752 | 35865 ft | 448 kts | 256° |
| 2026-04-12 21:45 | 56.73882 | -38.23819 | 35866 ft | 447 kts | 256° |
| 2026-04-12 21:45 | 56.72479 | -38.34773 | 35866 ft | 447 kts | 256° |
| 2026-04-12 21:46 | 56.71054 | -38.45802 | 35864 ft | 447 kts | 256° |
| 2026-04-12 21:46 | 56.69623 | -38.56807 | 35864 ft | 446 kts | 256° |
| 2026-04-12 21:47 | 56.68181 | -38.67805 | 35866 ft | 448 kts | 255° |
| 2026-04-12 21:47 | 56.66733 | -38.78763 | 35872 ft | 448 kts | 255° |
| 2026-04-12 21:48 | 56.65263 | -38.89815 | 35874 ft | 448 kts | 255° |
| 2026-04-12 21:48 | 56.63792 | -39.00790 | 35869 ft | 445 kts | 255° |
| 2026-04-12 21:49 | 56.62321 | -39.11680 | 35868 ft | 446 kts | 255° |
| 2026-04-12 21:49 | 56.60833 | -39.22622 | 35864 ft | 447 kts | 255° |
| 2026-04-12 21:50 | 56.59333 | -39.33572 | 35868 ft | 447 kts | 255° |
| 2026-04-12 21:50 | 56.57823 | -39.44519 | 35865 ft | 446 kts | 255° |
| 2026-04-12 21:51 | 56.56305 | -39.55443 | 35867 ft | 445 kts | 254° |
| 2026-04-12 21:51 | 56.54792 | -39.66247 | 35863 ft | 445 kts | 254° |
| 2026-04-12 21:52 | 56.53257 | -39.77146 | 35863 ft | 446 kts | 254° |
| 2026-04-12 21:52 | 56.51710 | -39.88040 | 35861 ft | 446 kts | 254° |
| 2026-04-12 21:53 | 56.50155 | -39.98923 | 35862 ft | 447 kts | 254° |
| 2026-04-12 21:53 | 56.48530 | -40.09782 | 35884 ft | 447 kts | 252° |
| 2026-04-12 21:54 | 56.46878 | -40.20547 | 35857 ft | 445 kts | 253° |
| 2026-04-12 21:54 | 56.45231 | -40.31361 | 35859 ft | 446 kts | 252° |
| 2026-04-12 21:55 | 56.43560 | -40.42162 | 35858 ft | 446 kts | 252° |
| 2026-04-12 21:55 | 56.41886 | -40.52971 | 35858 ft | 447 kts | 252° |
| 2026-04-12 21:56 | 56.40195 | -40.63791 | 35858 ft | 447 kts | 252° |
| 2026-04-12 21:56 | 56.38501 | -40.74577 | 35860 ft | 447 kts | 252° |
| 2026-04-12 21:57 | 56.36803 | -40.85302 | 35852 ft | 448 kts | 252° |
| 2026-04-12 21:57 | 56.35087 | -40.96086 | 35851 ft | 447 kts | 252° |
| 2026-04-12 21:58 | 56.33365 | -41.06834 | 35847 ft | 446 kts | 251° |
| 2026-04-12 21:58 | 56.31644 | -41.17509 | 35845 ft | 446 kts | 251° |
| 2026-04-12 21:59 | 56.29903 | -41.28238 | 35844 ft | 447 kts | 251° |
| 2026-04-12 21:59 | 56.28144 | -41.39016 | 35848 ft | 448 kts | 251° |
| 2026-04-12 22:00 | 56.26378 | -41.49769 | 35849 ft | 448 kts | 251° |
| 2026-04-12 22:00 | 56.24611 | -41.60458 | 35841 ft | 448 kts | 251° |
| 2026-04-12 22:01 | 56.22825 | -41.71200 | 35842 ft | 448 kts | 251° |
| 2026-04-12 22:01 | 56.21031 | -41.81923 | 35837 ft | 448 kts | 250° |
| 2026-04-12 22:02 | 56.19220 | -41.92681 | 35845 ft | 450 kts | 250° |
| 2026-04-12 22:02 | 56.17401 | -42.03419 | 35840 ft | 450 kts | 250° |
| 2026-04-12 22:03 | 56.15582 | -42.14099 | 35839 ft | 450 kts | 250° |
| 2026-04-12 22:03 | 56.13742 | -42.24830 | 35835 ft | 450 kts | 250° |
| 2026-04-12 22:04 | 56.11893 | -42.35555 | 35838 ft | 449 kts | 250° |
| 2026-04-12 22:04 | 56.10034 | -42.46272 | 35833 ft | 450 kts | 250° |
| 2026-04-12 22:05 | 56.08177 | -42.56911 | 35833 ft | 450 kts | 249° |
| 2026-04-12 22:05 | 56.06297 | -42.67622 | 35835 ft | 451 kts | 249° |
| 2026-04-12 22:06 | 56.04407 | -42.78324 | 35838 ft | 451 kts | 249° |
| 2026-04-12 22:06 | 56.02510 | -42.89005 | 35839 ft | 450 kts | 249° |
| 2026-04-12 22:07 | 56.00603 | -42.99679 | 35843 ft | 451 kts | 249° |
| 2026-04-12 22:07 | 55.98680 | -43.10378 | 35829 ft | 452 kts | 249° |
| 2026-04-12 22:08 | 55.96760 | -43.21007 | 35828 ft | 452 kts | 249° |
| 2026-04-12 22:08 | 55.94818 | -43.31686 | 35827 ft | 452 kts | 249° |
| 2026-04-12 22:09 | 55.92868 | -43.42351 | 35828 ft | 452 kts | 248° |
| 2026-04-12 22:09 | 55.90909 | -43.53004 | 35828 ft | 451 kts | 248° |
| 2026-04-12 22:10 | 55.88942 | -43.63641 | 35822 ft | 453 kts | 248° |
| 2026-04-12 22:10 | 55.86973 | -43.74230 | 35831 ft | 453 kts | 248° |
| 2026-04-12 22:11 | 55.84981 | -43.84882 | 35823 ft | 453 kts | 248° |
| 2026-04-12 22:11 | 55.82984 | -43.95497 | 35828 ft | 452 kts | 248° |
| 2026-04-12 22:12 | 55.80978 | -44.06104 | 35826 ft | 452 kts | 248° |
| 2026-04-12 22:12 | 55.78964 | -44.16690 | 35829 ft | 452 kts | 248° |
| 2026-04-12 22:13 | 55.76958 | -44.27182 | 35830 ft | 451 kts | 248° |
| 2026-04-12 22:13 | 55.74927 | -44.37740 | 35837 ft | 452 kts | 248° |
| 2026-04-12 22:14 | 55.72876 | -44.48347 | 35828 ft | 454 kts | 247° |
| 2026-04-12 22:14 | 55.70815 | -44.58952 | 35828 ft | 454 kts | 247° |
| 2026-04-12 22:15 | 55.68745 | -44.69536 | 35842 ft | 454 kts | 247° |
| 2026-04-12 22:15 | 55.66676 | -44.80062 | 35831 ft | 455 kts | 247° |
| 2026-04-12 22:16 | 55.64579 | -44.90674 | 35832 ft | 456 kts | 247° |
| 2026-04-12 22:16 | 55.62475 | -45.01264 | 35834 ft | 456 kts | 247° |
| 2026-04-12 22:17 | 55.60360 | -45.11852 | 35835 ft | 456 kts | 247° |
| 2026-04-12 22:17 | 55.58251 | -45.22354 | 35838 ft | 455 kts | 246° |
| 2026-04-12 22:18 | 55.56115 | -45.32928 | 35835 ft | 457 kts | 246° |
| 2026-04-12 22:18 | 55.53970 | -45.43499 | 35839 ft | 456 kts | 246° |
| 2026-04-12 22:19 | 55.51832 | -45.53974 | 35837 ft | 456 kts | 246° |
| 2026-04-12 22:19 | 55.49668 | -45.64521 | 35834 ft | 456 kts | 246° |
| 2026-04-12 22:20 | 55.47496 | -45.75052 | 35835 ft | 456 kts | 246° |
| 2026-04-12 22:20 | 55.45308 | -45.85597 | 35842 ft | 463 kts | 246° |
| 2026-04-12 22:21 | 55.43097 | -45.96219 | 35840 ft | 461 kts | 246° |
| 2026-04-12 22:21 | 55.40872 | -46.06826 | 35837 ft | 462 kts | 246° |
| 2026-04-12 22:22 | 55.38641 | -46.17422 | 35839 ft | 462 kts | 246° |
| 2026-04-12 22:22 | 55.36393 | -46.28039 | 35843 ft | 463 kts | 246° |
| 2026-04-12 22:23 | 55.34134 | -46.38651 | 35847 ft | 466 kts | 246° |
| 2026-04-12 22:23 | 55.31870 | -46.49235 | 35846 ft | 464 kts | 246° |
| 2026-04-12 22:24 | 55.29582 | -46.59873 | 35845 ft | 465 kts | 246° |
| 2026-04-12 22:24 | 55.27292 | -46.70468 | 35845 ft | 465 kts | 246° |
| 2026-04-12 22:25 | 55.24987 | -46.81074 | 35845 ft | 465 kts | 246° |
| 2026-04-12 22:25 | 55.22684 | -46.91614 | 35850 ft | 467 kts | 246° |
| 2026-04-12 22:26 | 55.20347 | -47.02266 | 35852 ft | 467 kts | 245° |
| 2026-04-12 22:26 | 55.18002 | -47.12888 | 35854 ft | 467 kts | 245° |
| 2026-04-12 22:27 | 55.15649 | -47.23499 | 35852 ft | 467 kts | 245° |
| 2026-04-12 22:27 | 55.13284 | -47.34106 | 35852 ft | 467 kts | 245° |
| 2026-04-12 22:28 | 55.10913 | -47.44689 | 35858 ft | 470 kts | 245° |
| 2026-04-12 22:28 | 55.08530 | -47.55271 | 35863 ft | 469 kts | 245° |
| 2026-04-12 22:29 | 55.06128 | -47.65883 | 35863 ft | 470 kts | 245° |
| 2026-04-12 22:29 | 55.03714 | -47.76493 | 35864 ft | 471 kts | 245° |
| 2026-04-12 22:30 | 55.01697 | -47.85321 | 35864 ft | 471 kts | 245° |
| 2026-04-12 22:30 | 54.99263 | -47.95921 | 35876 ft | 471 kts | 245° |
| 2026-04-12 22:31 | 54.96418 | -48.08250 | 35861 ft | 472 kts | 245° |
| 2026-04-12 22:31 | 54.94358 | -48.17127 | 35861 ft | 472 kts | 245° |
| 2026-04-12 22:32 | 54.91907 | -48.27648 | 35860 ft | 471 kts | 245° |
| 2026-04-12 22:32 | 54.89436 | -48.38200 | 35869 ft | 471 kts | 245° |
| 2026-04-12 22:33 | 54.86948 | -48.48767 | 35877 ft | 472 kts | 245° |
| 2026-04-12 22:33 | 54.84443 | -48.59362 | 35869 ft | 474 kts | 244° |
| 2026-04-12 22:34 | 54.81930 | -48.69936 | 35868 ft | 474 kts | 244° |
| 2026-04-12 22:34 | 54.79420 | -48.80444 | 35870 ft | 474 kts | 244° |
| 2026-04-12 22:35 | 54.76890 | -48.90989 | 35869 ft | 474 kts | 244° |
| 2026-04-12 22:35 | 54.74344 | -49.01542 | 35880 ft | 475 kts | 244° |
| 2026-04-12 22:36 | 54.71779 | -49.12129 | 35882 ft | 478 kts | 244° |
| 2026-04-12 22:36 | 54.69201 | -49.22719 | 35879 ft | 478 kts | 244° |
| 2026-04-12 22:37 | 54.66611 | -49.33300 | 35879 ft | 478 kts | 244° |
| 2026-04-12 22:37 | 54.64013 | -49.43870 | 35879 ft | 478 kts | 244° |
| 2026-04-12 22:38 | 54.61423 | -49.54351 | 35887 ft | 478 kts | 244° |
| 2026-04-12 22:38 | 54.58803 | -49.64905 | 35893 ft | 478 kts | 244° |
| 2026-04-12 22:39 | 54.56174 | -49.75443 | 35885 ft | 479 kts | 244° |
| 2026-04-12 22:40 | 54.52214 | -49.91228 | 35889 ft | 479 kts | 244° |
| 2026-04-12 22:40 | 54.49560 | -50.01746 | 35901 ft | 479 kts | 244° |
| 2026-04-12 22:41 | 54.47020 | -50.12354 | 35898 ft | 480 kts | 245° |
| 2026-04-12 22:41 | 54.44444 | -50.22924 | 35897 ft | 479 kts | 244° |
| 2026-04-12 22:42 | 54.41883 | -50.33408 | 35892 ft | 479 kts | 245° |
| 2026-04-12 22:42 | 54.39300 | -50.43943 | 35894 ft | 479 kts | 244° |
| 2026-04-12 22:43 | 54.36699 | -50.54483 | 35916 ft | 479 kts | 244° |
| 2026-04-12 22:43 | 54.34092 | -50.65011 | 35906 ft | 478 kts | 244° |
| 2026-04-12 22:44 | 54.31477 | -50.75509 | 35909 ft | 477 kts | 244° |
| 2026-04-12 22:44 | 54.28856 | -50.85990 | 35909 ft | 478 kts | 244° |
| 2026-04-12 22:45 | 54.26222 | -50.96471 | 35912 ft | 479 kts | 244° |
| 2026-04-12 22:45 | 54.23604 | -51.06842 | 35919 ft | 479 kts | 244° |
| 2026-04-12 22:46 | 54.20959 | -51.17266 | 35917 ft | 479 kts | 244° |
| 2026-04-12 22:46 | 54.18307 | -51.27668 | 35916 ft | 479 kts | 244° |
| 2026-04-12 22:47 | 54.15645 | -51.38067 | 35918 ft | 479 kts | 244° |
| 2026-04-12 22:47 | 54.12978 | -51.48431 | 35924 ft | 478 kts | 244° |
| 2026-04-12 22:48 | 54.10317 | -51.58726 | 35925 ft | 478 kts | 244° |
| 2026-04-12 22:48 | 54.07635 | -51.69062 | 35932 ft | 476 kts | 244° |
| 2026-04-12 22:49 | 54.04939 | -51.79396 | 35933 ft | 474 kts | 244° |
| 2026-04-12 22:49 | 54.02244 | -51.89684 | 35941 ft | 474 kts | 243° |
| 2026-04-12 22:50 | 53.99556 | -51.99892 | 35947 ft | 475 kts | 244° |
| 2026-04-12 22:50 | 53.96838 | -52.10176 | 35942 ft | 473 kts | 243° |
| 2026-04-12 22:51 | 53.94119 | -52.20409 | 35950 ft | 474 kts | 243° |
| 2026-04-12 22:51 | 53.91386 | -52.30656 | 35949 ft | 476 kts | 243° |
| 2026-04-12 22:52 | 53.88645 | -52.40882 | 35960 ft | 477 kts | 243° |
| 2026-04-12 22:52 | 53.85919 | -52.51006 | 35959 ft | 477 kts | 243° |
| 2026-04-12 22:53 | 53.83160 | -52.61208 | 35957 ft | 480 kts | 244° |
| 2026-04-12 22:53 | 53.80365 | -52.71498 | 35964 ft | 483 kts | 244° |
| 2026-04-12 22:54 | 53.77565 | -52.81765 | 35961 ft | 482 kts | 244° |
| 2026-04-12 22:54 | 53.74753 | -52.92025 | 35960 ft | 481 kts | 244° |
| 2026-04-12 22:55 | 53.71934 | -53.02265 | 35969 ft | 481 kts | 244° |
| 2026-04-12 22:55 | 53.69129 | -53.12410 | 35973 ft | 478 kts | 244° |
| 2026-04-12 22:56 | 53.66305 | -53.22579 | 35978 ft | 477 kts | 244° |
| 2026-04-12 22:56 | 53.63472 | -53.32734 | 35987 ft | 477 kts | 244° |
| 2026-04-12 22:57 | 53.60631 | -53.42879 | 35989 ft | 477 kts | 244° |
| 2026-04-12 22:57 | 53.57781 | -53.53007 | 35995 ft | 476 kts | 244° |
| 2026-04-12 22:58 | 53.54948 | -53.63031 | 35997 ft | 474 kts | 244° |
| 2026-04-12 22:58 | 53.52097 | -53.73077 | 35996 ft | 474 kts | 244° |
| 2026-04-12 22:59 | 53.49238 | -53.83107 | 36013 ft | 473 kts | 244° |
| 2026-04-12 22:59 | 53.46384 | -53.93078 | 36013 ft | 475 kts | 244° |
| 2026-04-12 23:00 | 53.43503 | -54.03096 | 36014 ft | 476 kts | 244° |
| 2026-04-12 23:00 | 53.40622 | -54.13081 | 36018 ft | 475 kts | 244° |
| 2026-04-12 23:01 | 53.37763 | -54.22941 | 36024 ft | 475 kts | 244° |
| 2026-04-12 23:01 | 53.34873 | -54.32869 | 36025 ft | 477 kts | 244° |
| 2026-04-12 23:02 | 53.31968 | -54.42803 | 36044 ft | 477 kts | 244° |
| 2026-04-12 23:02 | 53.29044 | -54.52762 | 36039 ft | 480 kts | 244° |
| 2026-04-12 23:03 | 53.26100 | -54.62749 | 36041 ft | 480 kts | 244° |
| 2026-04-12 23:03 | 53.23150 | -54.72715 | 36053 ft | 481 kts | 244° |
| 2026-04-12 23:04 | 53.20211 | -54.82598 | 36053 ft | 479 kts | 244° |
| 2026-04-12 23:04 | 53.17245 | -54.92534 | 36054 ft | 479 kts | 244° |
| 2026-04-12 23:05 | 53.14265 | -55.02470 | 36050 ft | 479 kts | 244° |
| 2026-04-12 23:05 | 53.11281 | -55.12385 | 36060 ft | 478 kts | 244° |
| 2026-04-12 23:06 | 53.08313 | -55.22203 | 36066 ft | 478 kts | 244° |
| 2026-04-12 23:06 | 53.05314 | -55.32084 | 36068 ft | 479 kts | 244° |
| 2026-04-12 23:07 | 53.02307 | -55.41950 | 36073 ft | 476 kts | 244° |
| 2026-04-12 23:07 | 52.99285 | -55.51824 | 36066 ft | 479 kts | 244° |
| 2026-04-12 23:08 | 52.96247 | -55.61711 | 36105 ft | 484 kts | 244° |
| 2026-04-12 23:08 | 52.93183 | -55.71640 | 36103 ft | 484 kts | 244° |
| 2026-04-12 23:09 | 52.90102 | -55.81584 | 36101 ft | 484 kts | 244° |
| 2026-04-12 23:09 | 52.85473 | -55.96447 | 36112 ft | 485 kts | 244° |
| 2026-04-12 23:10 | 52.82368 | -56.06367 | 36113 ft | 485 kts | 244° |
| 2026-04-12 23:10 | 52.79278 | -56.16197 | 36118 ft | 485 kts | 244° |
| 2026-04-12 23:11 | 52.76157 | -56.26087 | 36120 ft | 485 kts | 244° |
| 2026-04-12 23:11 | 52.72930 | -56.35864 | 36132 ft | 485 kts | 237° |
| 2026-04-12 23:12 | 52.68952 | -56.44914 | 36141 ft | 487 kts | 236° |
| 2026-04-12 23:12 | 52.64958 | -56.53864 | 36139 ft | 487 kts | 236° |
| 2026-04-12 23:13 | 52.60953 | -56.62864 | 36140 ft | 487 kts | 236° |
| 2026-04-12 23:13 | 52.56924 | -56.71851 | 36137 ft | 488 kts | 236° |
| 2026-04-12 23:14 | 52.52895 | -56.80827 | 36132 ft | 488 kts | 236° |
| 2026-04-12 23:14 | 52.48848 | -56.89800 | 36134 ft | 488 kts | 236° |
| 2026-04-12 23:15 | 52.44829 | -56.98684 | 36132 ft | 487 kts | 236° |
| 2026-04-12 23:15 | 52.40789 | -57.07582 | 36146 ft | 487 kts | 236° |
| 2026-04-12 23:16 | 52.36738 | -57.16475 | 36139 ft | 488 kts | 236° |
| 2026-04-12 23:16 | 52.33347 | -57.23893 | 36147 ft | 489 kts | 236° |
| 2026-04-12 23:17 | 52.28596 | -57.34253 | 36152 ft | 488 kts | 236° |
| 2026-04-12 23:17 | 52.25209 | -57.41612 | 36153 ft | 487 kts | 236° |
| 2026-04-12 23:18 | 52.21125 | -57.50457 | 36159 ft | 488 kts | 237° |
| 2026-04-12 23:18 | 52.17023 | -57.59313 | 36159 ft | 489 kts | 237° |
| 2026-04-12 23:19 | 52.12912 | -57.68155 | 36158 ft | 489 kts | 236° |
| 2026-04-12 23:19 | 52.08800 | -57.76969 | 36167 ft | 489 kts | 236° |
| 2026-04-12 23:20 | 52.04706 | -57.85714 | 36146 ft | 488 kts | 237° |
| 2026-04-12 23:20 | 52.00577 | -57.94507 | 36154 ft | 489 kts | 237° |
| 2026-04-12 23:21 | 51.96438 | -58.03288 | 36159 ft | 490 kts | 237° |
| 2026-04-12 23:21 | 51.92286 | -58.12068 | 36158 ft | 490 kts | 237° |
| 2026-04-12 23:22 | 51.88131 | -58.20822 | 36137 ft | 490 kts | 237° |
| 2026-04-12 23:22 | 51.84000 | -58.29498 | 36158 ft | 490 kts | 237° |
| 2026-04-12 23:23 | 51.79826 | -58.38234 | 36157 ft | 490 kts | 237° |
| 2026-04-12 23:23 | 51.75655 | -58.46934 | 36158 ft | 489 kts | 237° |
| 2026-04-12 23:24 | 51.71484 | -58.55605 | 36158 ft | 489 kts | 237° |
| 2026-04-12 23:24 | 51.67312 | -58.64249 | 36154 ft | 488 kts | 237° |
| 2026-04-12 23:25 | 51.63126 | -58.72893 | 36160 ft | 489 kts | 237° |
| 2026-04-12 23:25 | 51.58953 | -58.81480 | 36171 ft | 490 kts | 237° |
| 2026-04-12 23:26 | 51.54742 | -58.90120 | 36176 ft | 490 kts | 237° |
| 2026-04-12 23:26 | 51.50526 | -58.98737 | 36174 ft | 491 kts | 237° |
| 2026-04-12 23:27 | 51.46299 | -59.07349 | 36168 ft | 491 kts | 237° |
| 2026-04-12 23:27 | 51.42067 | -59.15943 | 36168 ft | 491 kts | 237° |
| 2026-04-12 23:28 | 51.37853 | -59.24472 | 36168 ft | 491 kts | 237° |
| 2026-04-12 23:28 | 51.33610 | -59.33030 | 36180 ft | 491 kts | 237° |
| 2026-04-12 23:29 | 51.29354 | -59.41586 | 36182 ft | 491 kts | 237° |
| 2026-04-12 23:29 | 51.25094 | -59.50123 | 36184 ft | 491 kts | 237° |
| 2026-04-12 23:30 | 51.20855 | -59.58588 | 36181 ft | 491 kts | 237° |
| 2026-04-12 23:30 | 51.16589 | -59.67082 | 36173 ft | 491 kts | 238° |
| 2026-04-12 23:31 | 51.12308 | -59.75574 | 36174 ft | 491 kts | 237° |
| 2026-04-12 23:31 | 51.08028 | -59.84039 | 36174 ft | 491 kts | 237° |
| 2026-04-12 23:32 | 51.03741 | -59.92490 | 36184 ft | 491 kts | 237° |
| 2026-04-12 23:32 | 50.99455 | -60.00911 | 36189 ft | 490 kts | 238° |
| 2026-04-12 23:33 | 50.95155 | -60.09333 | 36190 ft | 490 kts | 238° |
| 2026-04-12 23:33 | 50.90852 | -60.17730 | 36196 ft | 490 kts | 238° |
| 2026-04-12 23:34 | 50.86573 | -60.26057 | 36195 ft | 490 kts | 238° |
| 2026-04-12 23:34 | 50.82256 | -60.34427 | 36196 ft | 491 kts | 238° |
| 2026-04-12 23:35 | 50.77937 | -60.42779 | 36201 ft | 491 kts | 238° |
| 2026-04-12 23:35 | 50.73603 | -60.51127 | 36201 ft | 491 kts | 238° |
| 2026-04-12 23:36 | 50.69286 | -60.59420 | 36210 ft | 491 kts | 238° |
| 2026-04-12 23:36 | 50.64950 | -60.67719 | 36208 ft | 490 kts | 238° |
| 2026-04-12 23:37 | 50.60604 | -60.76018 | 36211 ft | 490 kts | 238° |
| 2026-04-12 23:37 | 50.56251 | -60.84296 | 36214 ft | 490 kts | 238° |
| 2026-04-12 23:38 | 50.51892 | -60.92562 | 36214 ft | 491 kts | 238° |
| 2026-04-12 23:38 | 50.47546 | -61.00772 | 36210 ft | 487 kts | 239° |
| 2026-04-12 23:39 | 50.43236 | -61.08902 | 36214 ft | 488 kts | 239° |
| 2026-04-12 23:39 | 50.38880 | -61.17079 | 36215 ft | 488 kts | 239° |
| 2026-04-12 23:40 | 50.34519 | -61.25247 | 36160 ft | 488 kts | 239° |
| 2026-04-12 23:40 | 50.30316 | -61.33092 | 36215 ft | 488 kts | 239° |
| 2026-04-12 23:41 | 50.25980 | -61.41162 | 36212 ft | 488 kts | 239° |
| 2026-04-12 23:41 | 50.21613 | -61.49262 | 36214 ft | 488 kts | 239° |
| 2026-04-12 23:42 | 50.17236 | -61.57358 | 36212 ft | 488 kts | 239° |
| 2026-04-12 23:43 | 50.10660 | -61.69474 | 36214 ft | 487 kts | 240° |
| 2026-04-12 23:43 | 50.06274 | -61.77519 | 36214 ft | 487 kts | 240° |
| 2026-04-12 23:44 | 50.01912 | -61.85501 | 36217 ft | 487 kts | 240° |
| 2026-04-12 23:44 | 49.97509 | -61.93531 | 36224 ft | 487 kts | 240° |
| 2026-04-12 23:45 | 49.93136 | -62.01482 | 36233 ft | 487 kts | 240° |
| 2026-04-12 23:45 | 49.88731 | -62.09466 | 36238 ft | 487 kts | 239° |
| 2026-04-12 23:46 | 49.84313 | -62.17450 | 36241 ft | 487 kts | 239° |
| 2026-04-12 23:46 | 49.79906 | -62.25389 | 36244 ft | 487 kts | 240° |
| 2026-04-12 23:47 | 49.75490 | -62.33321 | 36244 ft | 485 kts | 240° |
| 2026-04-12 23:47 | 49.71104 | -62.41177 | 36245 ft | 486 kts | 240° |
| 2026-04-12 23:48 | 49.66666 | -62.49098 | 36252 ft | 486 kts | 240° |
| 2026-04-12 23:48 | 49.62265 | -62.56927 | 36269 ft | 485 kts | 240° |
| 2026-04-12 23:49 | 49.57836 | -62.64795 | 36267 ft | 486 kts | 240° |
| 2026-04-12 23:49 | 49.53396 | -62.72642 | 36275 ft | 485 kts | 240° |
| 2026-04-12 23:50 | 49.48954 | -62.80483 | 36275 ft | 485 kts | 240° |
| 2026-04-12 23:50 | 49.44525 | -62.88265 | 36273 ft | 483 kts | 240° |
| 2026-04-12 23:51 | 49.40117 | -62.96000 | 36284 ft | 483 kts | 240° |
| 2026-04-12 23:51 | 49.35671 | -63.03769 | 36285 ft | 483 kts | 240° |
| 2026-04-12 23:52 | 49.31231 | -63.11508 | 36249 ft | 483 kts | 240° |
| 2026-04-12 23:52 | 49.26821 | -63.19174 | 36298 ft | 483 kts | 240° |
| 2026-04-12 23:53 | 49.22360 | -63.26900 | 36302 ft | 483 kts | 240° |
| 2026-04-12 23:53 | 49.17902 | -63.34602 | 36301 ft | 483 kts | 240° |
| 2026-04-12 23:54 | 49.13431 | -63.42302 | 36291 ft | 482 kts | 240° |
| 2026-04-12 23:54 | 49.08998 | -63.49917 | 36267 ft | 482 kts | 240° |
| 2026-04-12 23:55 | 49.04551 | -63.57530 | 36300 ft | 480 kts | 240° |
| 2026-04-12 23:55 | 49.00100 | -63.65132 | 36303 ft | 480 kts | 240° |
| 2026-04-12 23:56 | 48.95676 | -63.72658 | 36314 ft | 477 kts | 240° |
| 2026-04-12 23:56 | 48.91238 | -63.80202 | 36306 ft | 479 kts | 240° |
| 2026-04-12 23:57 | 48.86783 | -63.87735 | 36312 ft | 478 kts | 240° |
| 2026-04-12 23:57 | 48.82340 | -63.95237 | 36313 ft | 478 kts | 240° |
| 2026-04-12 23:58 | 48.77894 | -64.02716 | 36314 ft | 476 kts | 240° |
| 2026-04-12 23:58 | 48.73450 | -64.10179 | 36319 ft | 477 kts | 240° |
| 2026-04-12 23:59 | 48.68988 | -64.17643 | 36319 ft | 477 kts | 240° |
| 2026-04-12 23:59 | 48.64554 | -64.25044 | 36318 ft | 477 kts | 240° |
| 2026-04-13 00:00 | 48.60101 | -64.32447 | 36319 ft | 475 kts | 240° |
| 2026-04-13 00:00 | 48.55639 | -64.39858 | 36321 ft | 476 kts | 240° |
| 2026-04-13 00:01 | 48.51173 | -64.47244 | 36337 ft | 476 kts | 239° |
| 2026-04-13 00:01 | 48.46703 | -64.54621 | 36339 ft | 476 kts | 239° |
| 2026-04-13 00:02 | 48.42263 | -64.61922 | 36333 ft | 475 kts | 239° |
| 2026-04-13 00:02 | 48.37787 | -64.69270 | 36336 ft | 474 kts | 239° |
| 2026-04-13 00:03 | 48.33326 | -64.76568 | 36336 ft | 474 kts | 239° |
| 2026-04-13 00:03 | 48.28876 | -64.83828 | 36338 ft | 475 kts | 239° |
| 2026-04-13 00:04 | 48.24393 | -64.91121 | 36340 ft | 475 kts | 239° |
| 2026-04-13 00:04 | 48.19904 | -64.98406 | 36340 ft | 475 kts | 239° |
| 2026-04-13 00:05 | 48.16166 | -65.04454 | 36339 ft | 474 kts | 239° |
| 2026-04-13 00:05 | 48.11678 | -65.11700 | 36299 ft | 474 kts | 238° |
| 2026-04-13 00:06 | 48.07189 | -65.18930 | 36346 ft | 475 kts | 238° |
| 2026-04-13 00:06 | 48.02681 | -65.26162 | 36345 ft | 475 kts | 238° |
| 2026-04-13 00:07 | 47.98171 | -65.33386 | 36342 ft | 475 kts | 238° |
| 2026-04-13 00:07 | 47.93654 | -65.40595 | 36346 ft | 474 kts | 238° |
| 2026-04-13 00:08 | 47.89158 | -65.47756 | 36348 ft | 475 kts | 238° |
| 2026-04-13 00:08 | 47.84635 | -65.54937 | 36350 ft | 475 kts | 238° |
| 2026-04-13 00:09 | 47.80105 | -65.62112 | 36346 ft | 475 kts | 238° |
| 2026-04-13 00:09 | 47.75574 | -65.69264 | 36345 ft | 473 kts | 238° |
| 2026-04-13 00:10 | 47.71082 | -65.76343 | 36348 ft | 474 kts | 238° |
| 2026-04-13 00:10 | 47.66566 | -65.83431 | 36350 ft | 472 kts | 238° |
| 2026-04-13 00:11 | 47.62055 | -65.90503 | 36349 ft | 472 kts | 238° |
| 2026-04-13 00:11 | 47.57547 | -65.97539 | 36354 ft | 468 kts | 238° |
| 2026-04-13 00:12 | 47.53048 | -66.04558 | 36355 ft | 469 kts | 238° |
| 2026-04-13 00:12 | 47.48566 | -66.11519 | 36355 ft | 470 kts | 238° |
| 2026-04-13 00:13 | 47.44054 | -66.18513 | 36310 ft | 470 kts | 238° |
| 2026-04-13 00:13 | 47.39554 | -66.25466 | 36362 ft | 467 kts | 238° |
| 2026-04-13 00:14 | 47.35060 | -66.32399 | 36363 ft | 468 kts | 238° |
| 2026-04-13 00:14 | 47.30557 | -66.39319 | 36365 ft | 467 kts | 238° |
| 2026-04-13 00:15 | 47.26049 | -66.46235 | 36361 ft | 467 kts | 237° |
| 2026-04-13 00:15 | 47.21569 | -66.53088 | 36367 ft | 467 kts | 237° |
| 2026-04-13 00:16 | 47.17060 | -66.59966 | 36374 ft | 467 kts | 237° |
| 2026-04-13 00:16 | 47.12530 | -66.66860 | 36375 ft | 468 kts | 237° |
| 2026-04-13 00:17 | 47.08008 | -66.73718 | 36371 ft | 465 kts | 237° |
| 2026-04-13 00:17 | 47.03503 | -66.80545 | 36389 ft | 466 kts | 237° |
| 2026-04-13 00:18 | 46.99012 | -66.87321 | 36375 ft | 466 kts | 237° |
| 2026-04-13 00:18 | 46.94490 | -66.94134 | 36370 ft | 466 kts | 237° |
| 2026-04-13 00:19 | 46.89990 | -67.00892 | 36362 ft | 467 kts | 237° |
| 2026-04-13 00:19 | 46.85131 | -67.07323 | 36379 ft | 480 kts | 229° |
| 2026-04-13 00:20 | 46.79819 | -67.13248 | 36377 ft | 480 kts | 229° |
| 2026-04-13 00:20 | 46.74505 | -67.19156 | 36373 ft | 480 kts | 229° |
| 2026-04-13 00:21 | 46.69187 | -67.25056 | 36373 ft | 481 kts | 228° |
| 2026-04-13 00:21 | 46.63860 | -67.30948 | 36370 ft | 480 kts | 228° |
| 2026-04-13 00:22 | 46.58527 | -67.36835 | 36377 ft | 481 kts | 228° |
| 2026-04-13 00:22 | 46.53198 | -67.42701 | 36372 ft | 481 kts | 228° |
| 2026-04-13 00:23 | 46.47893 | -67.48528 | 36374 ft | 481 kts | 228° |
| 2026-04-13 00:23 | 46.42549 | -67.54379 | 36373 ft | 481 kts | 228° |
| 2026-04-13 00:24 | 46.37197 | -67.60229 | 36345 ft | 481 kts | 228° |
| 2026-04-13 00:24 | 46.31840 | -67.66064 | 36338 ft | 481 kts | 228° |
| 2026-04-13 00:25 | 46.26486 | -67.71886 | 36331 ft | 481 kts | 228° |
| 2026-04-13 00:25 | 46.21125 | -67.77698 | 36331 ft | 481 kts | 228° |
| 2026-04-13 00:26 | 46.15802 | -67.83458 | 36327 ft | 482 kts | 228° |
| 2026-04-13 00:26 | 46.10436 | -67.89246 | 36327 ft | 482 kts | 228° |
| 2026-04-13 00:27 | 46.05053 | -67.95041 | 36305 ft | 482 kts | 229° |
| 2026-04-13 00:27 | 45.99678 | -68.00811 | 36338 ft | 482 kts | 229° |
| 2026-04-13 00:28 | 45.94295 | -68.06576 | 36344 ft | 482 kts | 228° |
| 2026-04-13 00:28 | 45.88907 | -68.12332 | 36349 ft | 482 kts | 228° |
| 2026-04-13 00:29 | 45.83516 | -68.18077 | 36363 ft | 484 kts | 229° |
| 2026-04-13 00:29 | 45.78148 | -68.23781 | 36363 ft | 482 kts | 229° |
| 2026-04-13 00:30 | 45.72748 | -68.29509 | 36364 ft | 482 kts | 229° |
| 2026-04-13 00:30 | 45.67351 | -68.35216 | 36367 ft | 482 kts | 230° |
| 2026-04-13 00:31 | 45.61953 | -68.40916 | 36376 ft | 482 kts | 230° |
| 2026-04-13 00:31 | 45.56562 | -68.46586 | 36355 ft | 480 kts | 230° |
| 2026-04-13 00:32 | 45.51214 | -68.52206 | 36367 ft | 478 kts | 230° |
| 2026-04-13 00:32 | 45.45847 | -68.57829 | 36368 ft | 479 kts | 230° |
| 2026-04-13 00:33 | 45.40468 | -68.63448 | 36366 ft | 479 kts | 230° |
| 2026-04-13 00:33 | 45.35114 | -68.69030 | 36339 ft | 478 kts | 230° |
| 2026-04-13 00:34 | 45.29741 | -68.74620 | 36366 ft | 479 kts | 230° |
| 2026-04-13 00:34 | 45.24346 | -68.80214 | 36370 ft | 479 kts | 230° |
| 2026-04-13 00:35 | 45.18963 | -68.85787 | 36365 ft | 479 kts | 230° |
| 2026-04-13 00:35 | 45.13557 | -68.91373 | 36368 ft | 482 kts | 229° |
| 2026-04-13 00:36 | 45.08144 | -68.96941 | 36360 ft | 480 kts | 229° |
| 2026-04-13 00:36 | 45.02770 | -69.02470 | 36366 ft | 480 kts | 229° |
| 2026-04-13 00:37 | 44.94606 | -69.10832 | 36372 ft | 482 kts | 228° |
| 2026-04-13 00:37 | 44.89160 | -69.16396 | 36370 ft | 483 kts | 228° |
| 2026-04-13 00:38 | 44.83751 | -69.21908 | 36365 ft | 483 kts | 228° |
| 2026-04-13 00:38 | 44.78300 | -69.27448 | 36368 ft | 483 kts | 228° |
| 2026-04-13 00:39 | 44.72845 | -69.32982 | 36371 ft | 483 kts | 228° |
| 2026-04-13 00:39 | 44.67391 | -69.38499 | 36353 ft | 483 kts | 228° |
| 2026-04-13 00:40 | 44.61908 | -69.44040 | 36370 ft | 486 kts | 227° |
| 2026-04-13 00:40 | 44.56445 | -69.49533 | 36371 ft | 486 kts | 227° |
| 2026-04-13 00:41 | 44.50948 | -69.55061 | 36371 ft | 486 kts | 227° |
| 2026-04-13 00:41 | 44.45416 | -69.60608 | 36381 ft | 491 kts | 226° |
| 2026-04-13 00:42 | 44.39873 | -69.66143 | 36402 ft | 490 kts | 227° |
| 2026-04-13 00:42 | 44.34308 | -69.71698 | 36407 ft | 491 kts | 226° |
| 2026-04-13 00:43 | 44.28730 | -69.77250 | 36399 ft | 494 kts | 226° |
| 2026-04-13 00:43 | 44.23146 | -69.82789 | 36405 ft | 492 kts | 226° |
| 2026-04-13 00:44 | 44.14757 | -69.91093 | 36411 ft | 492 kts | 226° |
| 2026-04-13 00:45 | 44.09174 | -69.96609 | 36434 ft | 498 kts | 226° |
| 2026-04-13 00:45 | 44.03495 | -70.02191 | 36443 ft | 498 kts | 226° |
| 2026-04-13 00:46 | 43.97844 | -70.07745 | 36444 ft | 497 kts | 226° |
| 2026-04-13 00:46 | 43.92175 | -70.13301 | 36449 ft | 498 kts | 225° |
| 2026-04-13 00:47 | 43.86552 | -70.18795 | 36446 ft | 498 kts | 225° |
| 2026-04-13 00:47 | 43.80889 | -70.24320 | 36409 ft | 497 kts | 225° |
| 2026-04-13 00:48 | 43.75178 | -70.29884 | 36424 ft | 508 kts | 225° |
| 2026-04-13 00:48 | 43.69381 | -70.35493 | 36412 ft | 502 kts | 225° |
| 2026-04-13 00:49 | 43.63661 | -70.41046 | 36400 ft | 502 kts | 224° |
| 2026-04-13 00:49 | 43.57940 | -70.46565 | 36406 ft | 502 kts | 224° |
| 2026-04-13 00:50 | 43.53176 | -70.51159 | 36409 ft | 502 kts | 224° |
| 2026-04-13 00:50 | 43.46504 | -70.57575 | 36409 ft | 503 kts | 224° |
| 2026-04-13 00:51 | 43.41697 | -70.62185 | 36407 ft | 502 kts | 224° |
| 2026-04-13 00:51 | 43.35986 | -70.67653 | 36407 ft | 502 kts | 224° |
| 2026-04-13 00:52 | 43.30242 | -70.73139 | 36416 ft | 504 kts | 224° |
| 2026-04-13 00:52 | 43.24482 | -70.78626 | 36389 ft | 504 kts | 224° |
| 2026-04-13 00:53 | 43.18719 | -70.84106 | 36386 ft | 504 kts | 224° |
| 2026-04-13 00:53 | 43.13004 | -70.89581 | 36384 ft | 506 kts | 221° |
| 2026-04-13 00:53 | 43.09819 | -70.91799 | 36406 ft | 523 kts | 208° |
| 2026-04-13 00:54 | 43.06269 | -70.93181 | 36400 ft | 536 kts | 199° |
| 2026-04-13 00:54 | 42.98816 | -70.94279 | 36411 ft | 542 kts | 183° |
| 2026-04-13 00:54 | 42.95033 | -70.93595 | 36401 ft | 556 kts | 174° |
| 2026-04-13 00:55 | 42.91266 | -70.92327 | 36394 ft | 558 kts | 170° |
| 2026-04-13 00:55 | 42.83824 | -70.89238 | 36419 ft | 560 kts | 168° |
| 2026-04-13 00:55 | 42.80052 | -70.88118 | 36433 ft | 549 kts | 181° |
| 2026-04-13 00:56 | 42.76276 | -70.87937 | 36408 ft | 542 kts | 189° |
| 2026-04-13 00:56 | 42.68891 | -70.88863 | 36414 ft | 531 kts | 197° |
| 2026-04-13 00:57 | 42.61889 | -70.91514 | 36414 ft | 517 kts | 209° |
| 2026-04-13 00:57 | 42.55218 | -70.95073 | 36401 ft | 515 kts | 211° |
| 2026-04-13 00:58 | 42.48824 | -70.99247 | 36414 ft | 506 kts | 218° |
| 2026-04-13 00:58 | 42.45872 | -71.01766 | 36429 ft | 495 kts | 226° |
| 2026-04-13 00:58 | 42.43188 | -71.04644 | 36397 ft | 490 kts | 229° |
| 2026-04-13 00:59 | 42.37970 | -71.10612 | 36415 ft | 491 kts | 229° |
| 2026-04-13 00:59 | 42.32104 | -71.15650 | 36437 ft | 516 kts | 210° |
| 2026-04-13 01:00 | 42.25192 | -71.18498 | 36405 ft | 526 kts | 202° |
| 2026-04-13 01:00 | 42.18176 | -71.21259 | 36411 ft | 520 kts | 209° |
| 2026-04-13 01:01 | 42.11440 | -71.24789 | 36416 ft | 521 kts | 207° |
| 2026-04-13 01:01 | 42.04527 | -71.27863 | 36416 ft | 523 kts | 207° |
| 2026-04-13 01:02 | 41.97681 | -71.31182 | 36430 ft | 523 kts | 207° |
| 2026-04-13 01:02 | 41.90789 | -71.34369 | 36433 ft | 524 kts | 207° |
| 2026-04-13 01:03 | 41.83901 | -71.37619 | 36436 ft | 527 kts | 207° |
| 2026-04-13 01:03 | 41.76981 | -71.40839 | 36464 ft | 525 kts | 207° |
| 2026-04-13 01:04 | 41.70599 | -71.45148 | 36460 ft | 505 kts | 225° |
| 2026-04-13 01:04 | 41.65243 | -71.50991 | 36096 ft | 497 kts | 228° |
| 2026-04-13 01:04 | 41.62607 | -71.53934 | 35671 ft | 489 kts | 228° |
| 2026-04-13 01:05 | 41.60015 | -71.56836 | 35193 ft | 483 kts | 228° |
| 2026-04-13 01:05 | 41.57445 | -71.59702 | 34707 ft | 479 kts | 228° |
| 2026-04-13 01:05 | 41.54894 | -71.62533 | 34192 ft | 474 kts | 227° |
| 2026-04-13 01:05 | 41.52361 | -71.65346 | 33490 ft | 472 kts | 227° |
| 2026-04-13 01:06 | 41.49833 | -71.68160 | 32633 ft | 474 kts | 227° |
| 2026-04-13 01:06 | 41.47286 | -71.70989 | 31772 ft | 477 kts | 227° |
| 2026-04-13 01:06 | 41.44726 | -71.73820 | 30932 ft | 479 kts | 226° |
| 2026-04-13 01:06 | 41.42154 | -71.76661 | 30042 ft | 480 kts | 226° |
| 2026-04-13 01:07 | 41.39590 | -71.79497 | 29109 ft | 479 kts | 226° |
| 2026-04-13 01:07 | 41.37052 | -71.82300 | 28201 ft | 478 kts | 226° |
| 2026-04-13 01:07 | 41.34491 | -71.85124 | 27337 ft | 477 kts | 226° |
| 2026-04-13 01:07 | 41.31934 | -71.87941 | 26483 ft | 475 kts | 225° |
| 2026-04-13 01:08 | 41.29391 | -71.90739 | 25656 ft | 473 kts | 225° |
| 2026-04-13 01:08 | 41.26863 | -71.93520 | 24838 ft | 470 kts | 225° |
| 2026-04-13 01:08 | 41.24360 | -71.96267 | 24270 ft | 463 kts | 225° |
| 2026-04-13 01:08 | 41.21907 | -71.98952 | 24020 ft | 448 kts | 225° |
| 2026-04-13 01:09 | 41.19560 | -72.01519 | 24016 ft | 427 kts | 225° |
| 2026-04-13 01:09 | 41.17316 | -72.03978 | 24011 ft | 408 kts | 225° |
| 2026-04-13 01:09 | 41.15173 | -72.06327 | 23986 ft | 391 kts | 226° |
| 2026-04-13 01:09 | 41.13140 | -72.08551 | 23946 ft | 376 kts | 226° |
| 2026-04-13 01:10 | 41.11270 | -72.10839 | 23894 ft | 355 kts | 236° |
| 2026-04-13 01:10 | 41.09863 | -72.13412 | 23735 ft | 336 kts | 247° |
| 2026-04-13 01:10 | 41.08909 | -72.16190 | 23380 ft | 325 kts | 257° |
| 2026-04-13 01:10 | 41.08209 | -72.19025 | 23011 ft | 322 kts | 257° |
| 2026-04-13 01:11 | 41.07510 | -72.21831 | 22653 ft | 319 kts | 257° |
| 2026-04-13 01:11 | 41.06829 | -72.24580 | 22307 ft | 317 kts | 257° |
| 2026-04-13 01:11 | 41.06145 | -72.27344 | 21966 ft | 315 kts | 257° |
| 2026-04-13 01:11 | 41.05453 | -72.30135 | 21627 ft | 314 kts | 256° |
| 2026-04-13 01:12 | 41.04779 | -72.32844 | 21303 ft | 312 kts | 256° |
| 2026-04-13 01:12 | 41.04100 | -72.35571 | 20981 ft | 311 kts | 256° |
| 2026-04-13 01:12 | 41.03424 | -72.38286 | 20650 ft | 309 kts | 256° |
| 2026-04-13 01:12 | 41.02751 | -72.40982 | 20372 ft | 305 kts | 256° |
| 2026-04-13 01:13 | 41.02089 | -72.43628 | 20122 ft | 305 kts | 256° |
| 2026-04-13 01:13 | 41.01421 | -72.46308 | 19885 ft | 304 kts | 256° |
| 2026-04-13 01:13 | 41.00757 | -72.48959 | 19730 ft | 305 kts | 256° |
| 2026-04-13 01:13 | 41.00098 | -72.51592 | 19583 ft | 302 kts | 256° |
| 2026-04-13 01:14 | 40.99432 | -72.54244 | 19417 ft | 303 kts | 256° |
| 2026-04-13 01:14 | 40.98767 | -72.56891 | 19244 ft | 301 kts | 256° |
| 2026-04-13 01:14 | 40.98106 | -72.59520 | 19071 ft | 301 kts | 256° |
| 2026-04-13 01:14 | 40.97447 | -72.62140 | 18893 ft | 299 kts | 255° |
| 2026-04-13 01:15 | 40.96789 | -72.64754 | 18553 ft | 300 kts | 255° |
| 2026-04-13 01:15 | 40.96143 | -72.67311 | 18084 ft | 293 kts | 255° |
| 2026-04-13 01:15 | 40.95499 | -72.69855 | 17607 ft | 290 kts | 255° |
| 2026-04-13 01:15 | 40.94864 | -72.72371 | 17151 ft | 287 kts | 255° |
| 2026-04-13 01:16 | 40.94234 | -72.74864 | 16688 ft | 284 kts | 255° |
| 2026-04-13 01:16 | 40.93609 | -72.77323 | 16227 ft | 281 kts | 254° |
| 2026-04-13 01:16 | 40.92698 | -72.79629 | 15694 ft | 288 kts | 239° |
| 2026-04-13 01:16 | 40.91278 | -72.81513 | 15055 ft | 291 kts | 224° |
| 2026-04-13 01:17 | 40.89649 | -72.83083 | 14409 ft | 288 kts | 223° |
| 2026-04-13 01:17 | 40.88022 | -72.84630 | 13723 ft | 286 kts | 223° |
| 2026-04-13 01:17 | 40.86417 | -72.86165 | 13033 ft | 283 kts | 223° |
| 2026-04-13 01:17 | 40.84861 | -72.87661 | 12497 ft | 280 kts | 223° |
| 2026-04-13 01:18 | 40.83293 | -72.89166 | 12160 ft | 277 kts | 223° |
| 2026-04-13 01:18 | 40.81726 | -72.90669 | 12017 ft | 276 kts | 223° |
| 2026-04-13 01:18 | 40.80160 | -72.92170 | 12017 ft | 281 kts | 223° |
| 2026-04-13 01:18 | 40.78614 | -72.93641 | 12011 ft | 264 kts | 223° |
| 2026-04-13 01:19 | 40.77134 | -72.95055 | 12001 ft | 262 kts | 223° |
| 2026-04-13 01:19 | 40.75668 | -72.96463 | 11992 ft | 260 kts | 223° |
| 2026-04-13 01:19 | 40.74201 | -72.97867 | 11987 ft | 261 kts | 223° |
| 2026-04-13 01:19 | 40.72730 | -72.99270 | 11984 ft | 261 kts | 223° |
| 2026-04-13 01:20 | 40.71258 | -73.00674 | 11979 ft | 262 kts | 223° |
| 2026-04-13 01:20 | 40.69870 | -73.02210 | 11978 ft | 256 kts | 235° |
| 2026-04-13 01:20 | 40.68964 | -73.04164 | 11979 ft | 249 kts | 252° |
| 2026-04-13 01:20 | 40.68579 | -73.06357 | 11984 ft | 244 kts | 268° |
| 2026-04-13 01:21 | 40.68576 | -73.08561 | 11991 ft | 244 kts | 272° |
| 2026-04-13 01:21 | 40.68590 | -73.10795 | 11985 ft | 244 kts | 272° |
| 2026-04-13 01:21 | 40.68602 | -73.12999 | 11991 ft | 232 kts | 272° |
| 2026-04-13 01:21 | 40.68612 | -73.15069 | 11997 ft | 226 kts | 272° |
| 2026-04-13 01:22 | 40.68624 | -73.17152 | 11998 ft | 221 kts | 272° |
| 2026-04-13 01:22 | 40.68634 | -73.19182 | 12005 ft | 226 kts | 272° |
| 2026-04-13 01:22 | 40.68643 | -73.21217 | 12004 ft | 220 kts | 272° |
| 2026-04-13 01:22 | 40.68653 | -73.23241 | 12004 ft | 221 kts | 272° |
| 2026-04-13 01:23 | 40.68661 | -73.25267 | 12006 ft | 224 kts | 272° |
| 2026-04-13 01:23 | 40.68670 | -73.27297 | 12004 ft | 221 kts | 272° |
| 2026-04-13 01:23 | 40.68678 | -73.29343 | 12007 ft | 221 kts | 272° |
| 2026-04-13 01:23 | 40.68577 | -73.31376 | 12001 ft | 226 kts | 263° |
| 2026-04-13 01:24 | 40.68147 | -73.33364 | 11842 ft | 226 kts | 252° |
| 2026-04-13 01:24 | 40.67393 | -73.35191 | 11688 ft | 230 kts | 241° |
| 2026-04-13 01:24 | 40.66339 | -73.36802 | 11540 ft | 234 kts | 231° |
| 2026-04-13 01:24 | 40.65122 | -73.38235 | 11396 ft | 235 kts | 227° |
| 2026-04-13 01:25 | 40.63879 | -73.39627 | 11248 ft | 234 kts | 227° |
| 2026-04-13 01:25 | 40.62634 | -73.41008 | 11102 ft | 234 kts | 227° |
| 2026-04-13 01:25 | 40.61390 | -73.42389 | 10963 ft | 234 kts | 227° |
| 2026-04-13 01:25 | 40.60149 | -73.43767 | 10814 ft | 233 kts | 227° |
| 2026-04-13 01:26 | 40.58908 | -73.45147 | 10576 ft | 235 kts | 227° |
| 2026-04-13 01:26 | 40.57676 | -73.46517 | 10213 ft | 230 kts | 227° |
| 2026-04-13 01:26 | 40.56467 | -73.47869 | 9813 ft | 231 kts | 227° |
| 2026-04-13 01:26 | 40.55254 | -73.49235 | 9427 ft | 229 kts | 227° |
| 2026-04-13 01:27 | 40.54050 | -73.50597 | 9047 ft | 228 kts | 227° |
| 2026-04-13 01:27 | 40.52851 | -73.51958 | 8686 ft | 227 kts | 227° |
| 2026-04-13 01:27 | 40.51658 | -73.53318 | 8337 ft | 226 kts | 227° |
| 2026-04-13 01:27 | 40.50477 | -73.54674 | 7992 ft | 225 kts | 227° |
| 2026-04-13 01:28 | 40.49332 | -73.56062 | 7647 ft | 222 kts | 232° |
| 2026-04-13 01:28 | 40.48430 | -73.57672 | 7315 ft | 217 kts | 244° |
| 2026-04-13 01:28 | 40.47834 | -73.59472 | 7075 ft | 215 kts | 254° |
| 2026-04-13 01:28 | 40.47414 | -73.61347 | 6837 ft | 213 kts | 257° |
| 2026-04-13 01:29 | 40.47026 | -73.63227 | 6540 ft | 214 kts | 257° |
| 2026-04-13 01:29 | 40.46654 | -73.65103 | 6021 ft | 210 kts | 257° |
| 2026-04-13 01:29 | 40.46401 | -73.66981 | 5496 ft | 209 kts | 265° |
| 2026-04-13 01:29 | 40.46474 | -73.68882 | 5103 ft | 210 kts | 275° |
| 2026-04-13 01:30 | 40.46719 | -73.70753 | 4999 ft | 209 kts | 277° |
| 2026-04-13 01:30 | 40.46991 | -73.72625 | 5005 ft | 209 kts | 277° |
| 2026-04-13 01:30 | 40.47270 | -73.74517 | 5005 ft | 212 kts | 277° |
| 2026-04-13 01:30 | 40.47548 | -73.76409 | 5005 ft | 211 kts | 277° |
| 2026-04-13 01:31 | 40.47828 | -73.78305 | 5004 ft | 211 kts | 277° |
| 2026-04-13 01:31 | 40.48105 | -73.80193 | 5004 ft | 210 kts | 277° |
| 2026-04-13 01:31 | 40.48380 | -73.82081 | 5004 ft | 211 kts | 277° |
| 2026-04-13 01:31 | 40.48658 | -73.83972 | 5001 ft | 211 kts | 277° |
| 2026-04-13 01:32 | 40.48950 | -73.85879 | 4809 ft | 211 kts | 279° |
| 2026-04-13 01:32 | 40.49449 | -73.87660 | 4469 ft | 209 kts | 289° |
| 2026-04-13 01:32 | 40.50197 | -73.89296 | 4106 ft | 212 kts | 298° |
| 2026-04-13 01:32 | 40.51087 | -73.90842 | 3770 ft | 213 kts | 300° |
| 2026-04-13 01:33 | 40.52046 | -73.92350 | 3407 ft | 219 kts | 307° |
| 2026-04-13 01:33 | 40.53331 | -73.93502 | 3036 ft | 230 kts | 326° |
| 2026-04-13 01:33 | 40.54874 | -73.94064 | 2982 ft | 241 kts | 347° |
| 2026-04-13 01:33 | 40.56548 | -73.93981 | 2995 ft | 246 kts | 6° |
| 2026-04-13 01:34 | 40.58184 | -73.93243 | 2903 ft | 245 kts | 25° |
| 2026-04-13 01:34 | 40.59625 | -73.91934 | 2833 ft | 254 kts | 40° |
| 2026-04-13 01:34 | 40.60954 | -73.90473 | 2797 ft | 242 kts | 41° |
| 2026-04-13 01:34 | 40.62209 | -73.89104 | 2840 ft | 230 kts | 40° |
| 2026-04-13 01:35 | 40.63441 | -73.87882 | 2659 ft | 213 kts | 35° |
| 2026-04-13 01:35 | 40.64677 | -73.86896 | 2249 ft | 206 kts | 32° |
| 2026-04-13 01:35 | 40.65824 | -73.85892 | 1829 ft | 192 kts | 45° |
| 2026-04-13 01:35 | 40.66703 | -73.84672 | 1520 ft | 179 kts | 60° |
| 2026-04-13 01:36 | 40.67237 | -73.83289 | 1334 ft | 161 kts | 89° |
| 2026-04-13 01:36 | 40.67211 | -73.81950 | 931 ft | 144 kts | 123° |
| 2026-04-13 01:36 | 40.66647 | -73.80779 | 544 ft | 152 kts | 131° |
| 2026-04-13 01:36 | 40.66084 | -73.79666 | 212 ft | 138 kts | 124° |
| 2026-04-13 01:37 | 40.65604 | -73.78613 | 36 ft | 127 kts | 124° |
| 2026-04-13 01:37 | 40.65329 | -73.78022 | 27 ft | 93 kts | 121° |
| 2026-04-13 01:37 | 40.65138 | -73.77616 | 29 ft | 28 kts | 122° |
| 2026-04-13 01:37 | 40.65056 | -73.77461 | 26 ft | 14 kts | 144° |
| 2026-04-13 01:38 | 40.64986 | -73.77474 | 28 ft | 9 kts | 231° |
| 2026-04-13 01:38 | 40.64971 | -73.77494 | 30 ft | 9 kts | 212° |
| 2026-04-13 01:38 | 40.64911 | -73.77538 | 30 ft | 0 kts | 218° |
| 2026-04-13 01:39 | 40.64910 | -73.77539 | 29 ft | 3 kts | 217° |
| 2026-04-13 01:39 | 40.64868 | -73.77580 | 28 ft | 10 kts | 213° |
| 2026-04-13 01:39 | 40.64812 | -73.77570 | 28 ft | 7 kts | 132° |
| 2026-04-13 01:39 | 40.64766 | -73.77472 | 29 ft | 19 kts | 120° |
| 2026-04-13 01:40 | 40.64769 | -73.77337 | 29 ft | 13 kts | 80° |
| 2026-04-13 01:40 | 40.64742 | -73.77218 | 28 ft | 15 kts | 117° |
| 2026-04-13 01:40 | 40.64675 | -73.77115 | 28 ft | 15 kts | 148° |
| 2026-04-13 01:40 | 40.64577 | -73.77090 | 28 ft | 15 kts | 181° |
| 2026-04-13 01:41 | 40.64471 | -73.77095 | 28 ft | 15 kts | 188° |
| 2026-04-13 01:41 | 40.64350 | -73.77163 | 27 ft | 25 kts | 210° |
| 2026-04-13 01:41 | 40.64193 | -73.77290 | 31 ft | 28 kts | 211° |
| 2026-04-13 01:41 | 40.64080 | -73.77413 | 28 ft | 12 kts | 259° |
| 2026-04-13 01:42 | 40.64136 | -73.77515 | 29 ft | 17 kts | 320° |
| 2026-04-13 01:42 | 40.64257 | -73.77611 | 29 ft | 24 kts | 332° |
| 2026-04-13 01:42 | 40.64399 | -73.77732 | 29 ft | 24 kts | 308° |
| 2026-04-13 01:43 | 40.64432 | -73.77977 | 29 ft | 4 kts | 231° |
| 2026-04-13 01:43 | 40.64430 | -73.77981 | 29 ft | 0 kts | 230° |